﻿<?xml version="1.0" encoding="UTF-8" standalone="no" ?>
<gpx xmlns="http://www.topografix.com/GPX/1/1" creator="CompeGPS" version="1.1" xmlns:xsi="http://www.w3.org/2001/XMLSchema-instance" xsi:schemaLocation="http://www.topografix.com/GPX/1/1 http://www.topografix.com/GPX/1/1/gpx.xsd http://www.garmin.com/xmlschemas/GpxExtensions/v3 http://www.garmin.com/xmlschemas/GpxExtensionsv3.xsd http://www.garmin.com/xmlschemas/TrackPointExtension/v1 http://www.garmin.com/xmlschemas/TrackPointExtensionv1.xsd" xmlns:gpxtpx="http://www.garmin.com/xmlschemas/TrackPointExtension/v1">
  <metadata>
    <link href="http://www.compegps.com">
      <text>CompeGPS TEAM, SL</text>
    </link>
    <time>2019-10-20T20:25:06Z</time>
    <bounds maxlat="42.764323" maxlon="0.503006" minlat="42.706651" minlon="0.484692"/>
  </metadata>
  <trk>
    <name>Spijeoles</name>
    <userMyTwoNav></userMyTwoNav>
    <serialNumber></serialNumber>
    <trkseg>
      <trkpt lat="42.764319" lon="0.501590">
        <ele>1092.5</ele>
        <time>2019-10-13T08:31:59Z</time>
      </trkpt>
      <trkpt lat="42.764323" lon="0.501593">
        <ele>1141.1</ele>
        <time>2019-10-13T08:32:11Z</time>
      </trkpt>
      <trkpt lat="42.764308" lon="0.501581">
        <ele>1141.6</ele>
        <time>2019-10-13T08:32:41Z</time>
      </trkpt>
      <trkpt lat="42.764239" lon="0.501657">
        <ele>1142.2</ele>
        <time>2019-10-13T08:32:52Z</time>
      </trkpt>
      <trkpt lat="42.764157" lon="0.501724">
        <ele>1142.9</ele>
        <time>2019-10-13T08:33:02Z</time>
      </trkpt>
      <trkpt lat="42.764098" lon="0.501835">
        <ele>1144.4</ele>
        <time>2019-10-13T08:33:11Z</time>
      </trkpt>
      <trkpt lat="42.764042" lon="0.501953">
        <ele>1145.2</ele>
        <time>2019-10-13T08:33:20Z</time>
      </trkpt>
      <trkpt lat="42.763964" lon="0.502043">
        <ele>1145.8</ele>
        <time>2019-10-13T08:33:29Z</time>
      </trkpt>
      <trkpt lat="42.763866" lon="0.502053">
        <ele>1147.0</ele>
        <time>2019-10-13T08:33:39Z</time>
      </trkpt>
      <trkpt lat="42.763744" lon="0.502044">
        <ele>1147.9</ele>
        <time>2019-10-13T08:33:50Z</time>
      </trkpt>
      <trkpt lat="42.763635" lon="0.502016">
        <ele>1149.1</ele>
        <time>2019-10-13T08:34:01Z</time>
      </trkpt>
      <trkpt lat="42.763541" lon="0.502005">
        <ele>1150.3</ele>
        <time>2019-10-13T08:34:11Z</time>
      </trkpt>
      <trkpt lat="42.763428" lon="0.501990">
        <ele>1151.3</ele>
        <time>2019-10-13T08:34:22Z</time>
      </trkpt>
      <trkpt lat="42.763330" lon="0.501974">
        <ele>1152.2</ele>
        <time>2019-10-13T08:34:33Z</time>
      </trkpt>
      <trkpt lat="42.763225" lon="0.501974">
        <ele>1153.2</ele>
        <time>2019-10-13T08:34:42Z</time>
      </trkpt>
      <trkpt lat="42.763120" lon="0.501966">
        <ele>1154.6</ele>
        <time>2019-10-13T08:34:51Z</time>
      </trkpt>
      <trkpt lat="42.763015" lon="0.501955">
        <ele>1155.7</ele>
        <time>2019-10-13T08:35:00Z</time>
      </trkpt>
      <trkpt lat="42.762905" lon="0.501961">
        <ele>1156.9</ele>
        <time>2019-10-13T08:35:10Z</time>
      </trkpt>
      <trkpt lat="42.762808" lon="0.501928">
        <ele>1158.0</ele>
        <time>2019-10-13T08:35:21Z</time>
      </trkpt>
      <trkpt lat="42.762707" lon="0.501898">
        <ele>1158.6</ele>
        <time>2019-10-13T08:35:31Z</time>
      </trkpt>
      <trkpt lat="42.762624" lon="0.501823">
        <ele>1160.1</ele>
        <time>2019-10-13T08:35:41Z</time>
      </trkpt>
      <trkpt lat="42.762522" lon="0.501793">
        <ele>1161.6</ele>
        <time>2019-10-13T08:35:53Z</time>
      </trkpt>
      <trkpt lat="42.762419" lon="0.501800">
        <ele>1162.8</ele>
        <time>2019-10-13T08:36:03Z</time>
      </trkpt>
      <trkpt lat="42.762319" lon="0.501774">
        <ele>1164.2</ele>
        <time>2019-10-13T08:36:14Z</time>
      </trkpt>
      <trkpt lat="42.762224" lon="0.501777">
        <ele>1165.2</ele>
        <time>2019-10-13T08:36:22Z</time>
      </trkpt>
      <trkpt lat="42.762115" lon="0.501775">
        <ele>1166.4</ele>
        <time>2019-10-13T08:36:31Z</time>
      </trkpt>
      <trkpt lat="42.762012" lon="0.501774">
        <ele>1167.3</ele>
        <time>2019-10-13T08:36:39Z</time>
      </trkpt>
      <trkpt lat="42.761907" lon="0.501773">
        <ele>1168.2</ele>
        <time>2019-10-13T08:36:47Z</time>
      </trkpt>
      <trkpt lat="42.761806" lon="0.501772">
        <ele>1169.2</ele>
        <time>2019-10-13T08:36:56Z</time>
      </trkpt>
      <trkpt lat="42.761714" lon="0.501789">
        <ele>1170.1</ele>
        <time>2019-10-13T08:37:04Z</time>
      </trkpt>
      <trkpt lat="42.761619" lon="0.501776">
        <ele>1170.9</ele>
        <time>2019-10-13T08:37:12Z</time>
      </trkpt>
      <trkpt lat="42.761531" lon="0.501830">
        <ele>1171.6</ele>
        <time>2019-10-13T08:37:20Z</time>
      </trkpt>
      <trkpt lat="42.761456" lon="0.501912">
        <ele>1172.4</ele>
        <time>2019-10-13T08:37:28Z</time>
      </trkpt>
      <trkpt lat="42.761367" lon="0.501978">
        <ele>1173.1</ele>
        <time>2019-10-13T08:37:37Z</time>
      </trkpt>
      <trkpt lat="42.761283" lon="0.502023">
        <ele>1173.6</ele>
        <time>2019-10-13T08:37:45Z</time>
      </trkpt>
      <trkpt lat="42.761200" lon="0.501964">
        <ele>1174.2</ele>
        <time>2019-10-13T08:37:52Z</time>
      </trkpt>
      <trkpt lat="42.761118" lon="0.501893">
        <ele>1174.5</ele>
        <time>2019-10-13T08:38:00Z</time>
      </trkpt>
      <trkpt lat="42.761020" lon="0.501849">
        <ele>1175.1</ele>
        <time>2019-10-13T08:38:08Z</time>
      </trkpt>
      <trkpt lat="42.760921" lon="0.501824">
        <ele>1175.8</ele>
        <time>2019-10-13T08:38:16Z</time>
      </trkpt>
      <trkpt lat="42.760826" lon="0.501831">
        <ele>1176.2</ele>
        <time>2019-10-13T08:38:22Z</time>
      </trkpt>
      <trkpt lat="42.760727" lon="0.501841">
        <ele>1176.7</ele>
        <time>2019-10-13T08:38:30Z</time>
      </trkpt>
      <trkpt lat="42.760626" lon="0.501832">
        <ele>1177.4</ele>
        <time>2019-10-13T08:38:38Z</time>
      </trkpt>
      <trkpt lat="42.760522" lon="0.501852">
        <ele>1178.2</ele>
        <time>2019-10-13T08:38:46Z</time>
      </trkpt>
      <trkpt lat="42.760423" lon="0.501888">
        <ele>1178.6</ele>
        <time>2019-10-13T08:38:54Z</time>
      </trkpt>
      <trkpt lat="42.760336" lon="0.501950">
        <ele>1178.7</ele>
        <time>2019-10-13T08:39:02Z</time>
      </trkpt>
      <trkpt lat="42.760260" lon="0.502035">
        <ele>1179.0</ele>
        <time>2019-10-13T08:39:09Z</time>
      </trkpt>
      <trkpt lat="42.760162" lon="0.502082">
        <ele>1179.8</ele>
        <time>2019-10-13T08:39:18Z</time>
      </trkpt>
      <trkpt lat="42.760064" lon="0.502095">
        <ele>1180.8</ele>
        <time>2019-10-13T08:39:25Z</time>
      </trkpt>
      <trkpt lat="42.759960" lon="0.502161">
        <ele>1181.9</ele>
        <time>2019-10-13T08:39:33Z</time>
      </trkpt>
      <trkpt lat="42.759862" lon="0.502227">
        <ele>1182.6</ele>
        <time>2019-10-13T08:39:41Z</time>
      </trkpt>
      <trkpt lat="42.759784" lon="0.502336">
        <ele>1183.7</ele>
        <time>2019-10-13T08:39:49Z</time>
      </trkpt>
      <trkpt lat="42.759687" lon="0.502432">
        <ele>1184.7</ele>
        <time>2019-10-13T08:39:58Z</time>
      </trkpt>
      <trkpt lat="42.759615" lon="0.502516">
        <ele>1185.7</ele>
        <time>2019-10-13T08:40:06Z</time>
      </trkpt>
      <trkpt lat="42.759533" lon="0.502580">
        <ele>1186.0</ele>
        <time>2019-10-13T08:40:14Z</time>
      </trkpt>
      <trkpt lat="42.759446" lon="0.502633">
        <ele>1186.9</ele>
        <time>2019-10-13T08:40:22Z</time>
      </trkpt>
      <trkpt lat="42.759345" lon="0.502666">
        <ele>1188.4</ele>
        <time>2019-10-13T08:40:30Z</time>
      </trkpt>
      <trkpt lat="42.759247" lon="0.502596">
        <ele>1189.6</ele>
        <time>2019-10-13T08:40:38Z</time>
      </trkpt>
      <trkpt lat="42.759150" lon="0.502532">
        <ele>1190.8</ele>
        <time>2019-10-13T08:40:45Z</time>
      </trkpt>
      <trkpt lat="42.759051" lon="0.502482">
        <ele>1192.1</ele>
        <time>2019-10-13T08:40:53Z</time>
      </trkpt>
      <trkpt lat="42.758943" lon="0.502495">
        <ele>1193.4</ele>
        <time>2019-10-13T08:41:01Z</time>
      </trkpt>
      <trkpt lat="42.758842" lon="0.502513">
        <ele>1194.4</ele>
        <time>2019-10-13T08:41:08Z</time>
      </trkpt>
      <trkpt lat="42.758734" lon="0.502550">
        <ele>1195.5</ele>
        <time>2019-10-13T08:41:16Z</time>
      </trkpt>
      <trkpt lat="42.758637" lon="0.502544">
        <ele>1197.0</ele>
        <time>2019-10-13T08:41:24Z</time>
      </trkpt>
      <trkpt lat="42.758538" lon="0.502534">
        <ele>1198.2</ele>
        <time>2019-10-13T08:41:32Z</time>
      </trkpt>
      <trkpt lat="42.758439" lon="0.502498">
        <ele>1199.5</ele>
        <time>2019-10-13T08:41:40Z</time>
      </trkpt>
      <trkpt lat="42.758338" lon="0.502468">
        <ele>1200.8</ele>
        <time>2019-10-13T08:41:47Z</time>
      </trkpt>
      <trkpt lat="42.758231" lon="0.502460">
        <ele>1202.7</ele>
        <time>2019-10-13T08:41:55Z</time>
      </trkpt>
      <trkpt lat="42.758136" lon="0.502437">
        <ele>1203.7</ele>
        <time>2019-10-13T08:42:02Z</time>
      </trkpt>
      <trkpt lat="42.758034" lon="0.502417">
        <ele>1204.9</ele>
        <time>2019-10-13T08:42:10Z</time>
      </trkpt>
      <trkpt lat="42.757934" lon="0.502355">
        <ele>1206.4</ele>
        <time>2019-10-13T08:42:22Z</time>
      </trkpt>
      <trkpt lat="42.757836" lon="0.502306">
        <ele>1207.7</ele>
        <time>2019-10-13T08:42:31Z</time>
      </trkpt>
      <trkpt lat="42.757736" lon="0.502268">
        <ele>1209.5</ele>
        <time>2019-10-13T08:42:42Z</time>
      </trkpt>
      <trkpt lat="42.757654" lon="0.502192">
        <ele>1211.5</ele>
        <time>2019-10-13T08:42:52Z</time>
      </trkpt>
      <trkpt lat="42.757563" lon="0.502140">
        <ele>1213.5</ele>
        <time>2019-10-13T08:43:01Z</time>
      </trkpt>
      <trkpt lat="42.757465" lon="0.502119">
        <ele>1214.7</ele>
        <time>2019-10-13T08:43:08Z</time>
      </trkpt>
      <trkpt lat="42.757369" lon="0.502043">
        <ele>1216.7</ele>
        <time>2019-10-13T08:43:17Z</time>
      </trkpt>
      <trkpt lat="42.757296" lon="0.501927">
        <ele>1218.4</ele>
        <time>2019-10-13T08:43:26Z</time>
      </trkpt>
      <trkpt lat="42.757209" lon="0.501857">
        <ele>1219.9</ele>
        <time>2019-10-13T08:43:34Z</time>
      </trkpt>
      <trkpt lat="42.757143" lon="0.501725">
        <ele>1221.5</ele>
        <time>2019-10-13T08:43:43Z</time>
      </trkpt>
      <trkpt lat="42.757063" lon="0.501675">
        <ele>1222.6</ele>
        <time>2019-10-13T08:43:51Z</time>
      </trkpt>
      <trkpt lat="42.756965" lon="0.501608">
        <ele>1224.0</ele>
        <time>2019-10-13T08:43:59Z</time>
      </trkpt>
      <trkpt lat="42.756846" lon="0.501535">
        <ele>1225.4</ele>
        <time>2019-10-13T08:44:08Z</time>
      </trkpt>
      <trkpt lat="42.756751" lon="0.501534">
        <ele>1226.9</ele>
        <time>2019-10-13T08:44:16Z</time>
      </trkpt>
      <trkpt lat="42.756658" lon="0.501468">
        <ele>1228.7</ele>
        <time>2019-10-13T08:44:24Z</time>
      </trkpt>
      <trkpt lat="42.756565" lon="0.501421">
        <ele>1230.1</ele>
        <time>2019-10-13T08:44:31Z</time>
      </trkpt>
      <trkpt lat="42.756451" lon="0.501265">
        <ele>1231.7</ele>
        <time>2019-10-13T08:44:41Z</time>
      </trkpt>
      <trkpt lat="42.756389" lon="0.501143">
        <ele>1234.2</ele>
        <time>2019-10-13T08:44:52Z</time>
      </trkpt>
      <trkpt lat="42.756312" lon="0.501052">
        <ele>1236.7</ele>
        <time>2019-10-13T08:45:03Z</time>
      </trkpt>
      <trkpt lat="42.756223" lon="0.500929">
        <ele>1238.4</ele>
        <time>2019-10-13T08:45:12Z</time>
      </trkpt>
      <trkpt lat="42.756158" lon="0.500808">
        <ele>1240.4</ele>
        <time>2019-10-13T08:45:21Z</time>
      </trkpt>
      <trkpt lat="42.756120" lon="0.500682">
        <ele>1242.0</ele>
        <time>2019-10-13T08:45:30Z</time>
      </trkpt>
      <trkpt lat="42.756052" lon="0.500559">
        <ele>1243.1</ele>
        <time>2019-10-13T08:45:40Z</time>
      </trkpt>
      <trkpt lat="42.755985" lon="0.500467">
        <ele>1244.8</ele>
        <time>2019-10-13T08:45:51Z</time>
      </trkpt>
      <trkpt lat="42.755908" lon="0.500346">
        <ele>1246.3</ele>
        <time>2019-10-13T08:46:00Z</time>
      </trkpt>
      <trkpt lat="42.755831" lon="0.500241">
        <ele>1247.8</ele>
        <time>2019-10-13T08:46:09Z</time>
      </trkpt>
      <trkpt lat="42.755752" lon="0.500156">
        <ele>1249.5</ele>
        <time>2019-10-13T08:46:17Z</time>
      </trkpt>
      <trkpt lat="42.755663" lon="0.500068">
        <ele>1250.8</ele>
        <time>2019-10-13T08:46:25Z</time>
      </trkpt>
      <trkpt lat="42.755558" lon="0.500004">
        <ele>1252.1</ele>
        <time>2019-10-13T08:46:34Z</time>
      </trkpt>
      <trkpt lat="42.755454" lon="0.499954">
        <ele>1253.1</ele>
        <time>2019-10-13T08:46:42Z</time>
      </trkpt>
      <trkpt lat="42.755351" lon="0.499939">
        <ele>1255.2</ele>
        <time>2019-10-13T08:46:55Z</time>
      </trkpt>
      <trkpt lat="42.755248" lon="0.499896">
        <ele>1256.8</ele>
        <time>2019-10-13T08:47:04Z</time>
      </trkpt>
      <trkpt lat="42.755149" lon="0.499841">
        <ele>1258.0</ele>
        <time>2019-10-13T08:47:12Z</time>
      </trkpt>
      <trkpt lat="42.755049" lon="0.499779">
        <ele>1259.8</ele>
        <time>2019-10-13T08:47:21Z</time>
      </trkpt>
      <trkpt lat="42.754945" lon="0.499726">
        <ele>1261.5</ele>
        <time>2019-10-13T08:47:30Z</time>
      </trkpt>
      <trkpt lat="42.754857" lon="0.499678">
        <ele>1263.1</ele>
        <time>2019-10-13T08:47:37Z</time>
      </trkpt>
      <trkpt lat="42.754754" lon="0.499629">
        <ele>1264.4</ele>
        <time>2019-10-13T08:47:45Z</time>
      </trkpt>
      <trkpt lat="42.754654" lon="0.499600">
        <ele>1265.7</ele>
        <time>2019-10-13T08:47:53Z</time>
      </trkpt>
      <trkpt lat="42.754553" lon="0.499602">
        <ele>1266.9</ele>
        <time>2019-10-13T08:48:00Z</time>
      </trkpt>
      <trkpt lat="42.754447" lon="0.499618">
        <ele>1268.3</ele>
        <time>2019-10-13T08:48:08Z</time>
      </trkpt>
      <trkpt lat="42.754330" lon="0.499653">
        <ele>1269.8</ele>
        <time>2019-10-13T08:48:16Z</time>
      </trkpt>
      <trkpt lat="42.754214" lon="0.499676">
        <ele>1271.3</ele>
        <time>2019-10-13T08:48:24Z</time>
      </trkpt>
      <trkpt lat="42.754099" lon="0.499700">
        <ele>1273.0</ele>
        <time>2019-10-13T08:48:33Z</time>
      </trkpt>
      <trkpt lat="42.753989" lon="0.499748">
        <ele>1274.6</ele>
        <time>2019-10-13T08:48:41Z</time>
      </trkpt>
      <trkpt lat="42.753843" lon="0.499753">
        <ele>1276.8</ele>
        <time>2019-10-13T08:48:53Z</time>
      </trkpt>
      <trkpt lat="42.753699" lon="0.499582">
        <ele>1278.9</ele>
        <time>2019-10-13T08:49:06Z</time>
      </trkpt>
      <trkpt lat="42.753599" lon="0.499531">
        <ele>1280.3</ele>
        <time>2019-10-13T08:49:17Z</time>
      </trkpt>
      <trkpt lat="42.753494" lon="0.499470">
        <ele>1281.7</ele>
        <time>2019-10-13T08:49:27Z</time>
      </trkpt>
      <trkpt lat="42.753392" lon="0.499401">
        <ele>1283.6</ele>
        <time>2019-10-13T08:49:36Z</time>
      </trkpt>
      <trkpt lat="42.753269" lon="0.499342">
        <ele>1285.5</ele>
        <time>2019-10-13T08:49:45Z</time>
      </trkpt>
      <trkpt lat="42.753151" lon="0.499270">
        <ele>1287.4</ele>
        <time>2019-10-13T08:49:55Z</time>
      </trkpt>
      <trkpt lat="42.753039" lon="0.499160">
        <ele>1289.0</ele>
        <time>2019-10-13T08:50:07Z</time>
      </trkpt>
      <trkpt lat="42.752948" lon="0.499100">
        <ele>1290.4</ele>
        <time>2019-10-13T08:50:15Z</time>
      </trkpt>
      <trkpt lat="42.752863" lon="0.499014">
        <ele>1292.4</ele>
        <time>2019-10-13T08:50:24Z</time>
      </trkpt>
      <trkpt lat="42.752766" lon="0.498940">
        <ele>1293.9</ele>
        <time>2019-10-13T08:50:33Z</time>
      </trkpt>
      <trkpt lat="42.752670" lon="0.498854">
        <ele>1295.1</ele>
        <time>2019-10-13T08:50:42Z</time>
      </trkpt>
      <trkpt lat="42.752583" lon="0.498791">
        <ele>1295.9</ele>
        <time>2019-10-13T08:50:49Z</time>
      </trkpt>
      <trkpt lat="42.752499" lon="0.498680">
        <ele>1297.6</ele>
        <time>2019-10-13T08:50:58Z</time>
      </trkpt>
      <trkpt lat="42.752424" lon="0.498551">
        <ele>1299.6</ele>
        <time>2019-10-13T08:51:07Z</time>
      </trkpt>
      <trkpt lat="42.752340" lon="0.498450">
        <ele>1300.6</ele>
        <time>2019-10-13T08:51:16Z</time>
      </trkpt>
      <trkpt lat="42.752254" lon="0.498358">
        <ele>1302.9</ele>
        <time>2019-10-13T08:51:26Z</time>
      </trkpt>
      <trkpt lat="42.752175" lon="0.498236">
        <ele>1304.9</ele>
        <time>2019-10-13T08:51:34Z</time>
      </trkpt>
      <trkpt lat="42.752142" lon="0.498096">
        <ele>1306.8</ele>
        <time>2019-10-13T08:51:43Z</time>
      </trkpt>
      <trkpt lat="42.752100" lon="0.497956">
        <ele>1308.6</ele>
        <time>2019-10-13T08:51:52Z</time>
      </trkpt>
      <trkpt lat="42.752039" lon="0.497844">
        <ele>1310.3</ele>
        <time>2019-10-13T08:52:01Z</time>
      </trkpt>
      <trkpt lat="42.751946" lon="0.497738">
        <ele>1312.4</ele>
        <time>2019-10-13T08:52:10Z</time>
      </trkpt>
      <trkpt lat="42.751851" lon="0.497622">
        <ele>1314.3</ele>
        <time>2019-10-13T08:52:18Z</time>
      </trkpt>
      <trkpt lat="42.751778" lon="0.497499">
        <ele>1315.9</ele>
        <time>2019-10-13T08:52:25Z</time>
      </trkpt>
      <trkpt lat="42.751745" lon="0.497355">
        <ele>1317.5</ele>
        <time>2019-10-13T08:52:32Z</time>
      </trkpt>
      <trkpt lat="42.751696" lon="0.497222">
        <ele>1319.5</ele>
        <time>2019-10-13T08:52:39Z</time>
      </trkpt>
      <trkpt lat="42.751667" lon="0.497086">
        <ele>1321.7</ele>
        <time>2019-10-13T08:52:46Z</time>
      </trkpt>
      <trkpt lat="42.751605" lon="0.496966">
        <ele>1323.9</ele>
        <time>2019-10-13T08:52:53Z</time>
      </trkpt>
      <trkpt lat="42.751540" lon="0.496854">
        <ele>1326.3</ele>
        <time>2019-10-13T08:53:00Z</time>
      </trkpt>
      <trkpt lat="42.751503" lon="0.496723">
        <ele>1328.5</ele>
        <time>2019-10-13T08:53:06Z</time>
      </trkpt>
      <trkpt lat="42.751461" lon="0.496649">
        <ele>1330.7</ele>
        <time>2019-10-13T08:53:13Z</time>
      </trkpt>
      <trkpt lat="42.751421" lon="0.496758">
        <ele>1333.5</ele>
        <time>2019-10-13T08:53:22Z</time>
      </trkpt>
      <trkpt lat="42.751419" lon="0.496924">
        <ele>1335.8</ele>
        <time>2019-10-13T08:53:29Z</time>
      </trkpt>
      <trkpt lat="42.751433" lon="0.497064">
        <ele>1337.6</ele>
        <time>2019-10-13T08:53:36Z</time>
      </trkpt>
      <trkpt lat="42.751350" lon="0.497071">
        <ele>1339.9</ele>
        <time>2019-10-13T08:53:43Z</time>
      </trkpt>
      <trkpt lat="42.751334" lon="0.496940">
        <ele>1341.2</ele>
        <time>2019-10-13T08:53:49Z</time>
      </trkpt>
      <trkpt lat="42.751283" lon="0.496824">
        <ele>1342.9</ele>
        <time>2019-10-13T08:53:55Z</time>
      </trkpt>
      <trkpt lat="42.751239" lon="0.496707">
        <ele>1344.4</ele>
        <time>2019-10-13T08:54:01Z</time>
      </trkpt>
      <trkpt lat="42.751169" lon="0.496606">
        <ele>1346.1</ele>
        <time>2019-10-13T08:54:07Z</time>
      </trkpt>
      <trkpt lat="42.751129" lon="0.496692">
        <ele>1347.9</ele>
        <time>2019-10-13T08:54:14Z</time>
      </trkpt>
      <trkpt lat="42.751163" lon="0.496839">
        <ele>1349.4</ele>
        <time>2019-10-13T08:54:20Z</time>
      </trkpt>
      <trkpt lat="42.751175" lon="0.496975">
        <ele>1351.0</ele>
        <time>2019-10-13T08:54:27Z</time>
      </trkpt>
      <trkpt lat="42.751183" lon="0.497106">
        <ele>1352.6</ele>
        <time>2019-10-13T08:54:33Z</time>
      </trkpt>
      <trkpt lat="42.751112" lon="0.497152">
        <ele>1354.6</ele>
        <time>2019-10-13T08:54:40Z</time>
      </trkpt>
      <trkpt lat="42.751076" lon="0.497027">
        <ele>1356.7</ele>
        <time>2019-10-13T08:54:46Z</time>
      </trkpt>
      <trkpt lat="42.751042" lon="0.496884">
        <ele>1358.1</ele>
        <time>2019-10-13T08:54:52Z</time>
      </trkpt>
      <trkpt lat="42.750982" lon="0.496778">
        <ele>1360.0</ele>
        <time>2019-10-13T08:54:59Z</time>
      </trkpt>
      <trkpt lat="42.750896" lon="0.496715">
        <ele>1362.2</ele>
        <time>2019-10-13T08:55:06Z</time>
      </trkpt>
      <trkpt lat="42.750887" lon="0.496831">
        <ele>1364.7</ele>
        <time>2019-10-13T08:55:12Z</time>
      </trkpt>
      <trkpt lat="42.750927" lon="0.496973">
        <ele>1366.8</ele>
        <time>2019-10-13T08:55:19Z</time>
      </trkpt>
      <trkpt lat="42.750946" lon="0.497123">
        <ele>1368.5</ele>
        <time>2019-10-13T08:55:25Z</time>
      </trkpt>
      <trkpt lat="42.750881" lon="0.497155">
        <ele>1371.2</ele>
        <time>2019-10-13T08:55:33Z</time>
      </trkpt>
      <trkpt lat="42.750845" lon="0.497041">
        <ele>1372.9</ele>
        <time>2019-10-13T08:55:38Z</time>
      </trkpt>
      <trkpt lat="42.750770" lon="0.496915">
        <ele>1374.5</ele>
        <time>2019-10-13T08:55:44Z</time>
      </trkpt>
      <trkpt lat="42.750702" lon="0.496796">
        <ele>1376.3</ele>
        <time>2019-10-13T08:55:50Z</time>
      </trkpt>
      <trkpt lat="42.750613" lon="0.496706">
        <ele>1377.9</ele>
        <time>2019-10-13T08:55:56Z</time>
      </trkpt>
      <trkpt lat="42.750531" lon="0.496564">
        <ele>1380.6</ele>
        <time>2019-10-13T08:56:03Z</time>
      </trkpt>
      <trkpt lat="42.750499" lon="0.496366">
        <ele>1383.0</ele>
        <time>2019-10-13T08:56:11Z</time>
      </trkpt>
      <trkpt lat="42.750458" lon="0.496132">
        <ele>1385.3</ele>
        <time>2019-10-13T08:56:20Z</time>
      </trkpt>
      <trkpt lat="42.750463" lon="0.495978">
        <ele>1388.2</ele>
        <time>2019-10-13T08:59:46Z</time>
      </trkpt>
      <trkpt lat="42.750469" lon="0.495959">
        <ele>1388.6</ele>
        <time>2019-10-13T09:00:21Z</time>
      </trkpt>
      <trkpt lat="42.750441" lon="0.495884">
        <ele>1390.7</ele>
        <time>2019-10-13T09:00:40Z</time>
      </trkpt>
      <trkpt lat="42.750533" lon="0.495761">
        <ele>1391.8</ele>
        <time>2019-10-13T09:00:47Z</time>
      </trkpt>
      <trkpt lat="42.750627" lon="0.495708">
        <ele>1392.7</ele>
        <time>2019-10-13T09:00:56Z</time>
      </trkpt>
      <trkpt lat="42.750714" lon="0.495621">
        <ele>1394.4</ele>
        <time>2019-10-13T09:01:06Z</time>
      </trkpt>
      <trkpt lat="42.750755" lon="0.495475">
        <ele>1396.2</ele>
        <time>2019-10-13T09:01:16Z</time>
      </trkpt>
      <trkpt lat="42.750785" lon="0.495350">
        <ele>1399.1</ele>
        <time>2019-10-13T09:01:26Z</time>
      </trkpt>
      <trkpt lat="42.750792" lon="0.495227">
        <ele>1402.0</ele>
        <time>2019-10-13T09:01:35Z</time>
      </trkpt>
      <trkpt lat="42.750776" lon="0.495157">
        <ele>1405.3</ele>
        <time>2019-10-13T09:01:48Z</time>
      </trkpt>
      <trkpt lat="42.750648" lon="0.495188">
        <ele>1407.9</ele>
        <time>2019-10-13T09:02:01Z</time>
      </trkpt>
      <trkpt lat="42.750566" lon="0.495126">
        <ele>1410.9</ele>
        <time>2019-10-13T09:02:10Z</time>
      </trkpt>
      <trkpt lat="42.750530" lon="0.494964">
        <ele>1414.4</ele>
        <time>2019-10-13T09:02:19Z</time>
      </trkpt>
      <trkpt lat="42.750568" lon="0.494814">
        <ele>1417.3</ele>
        <time>2019-10-13T09:02:31Z</time>
      </trkpt>
      <trkpt lat="42.750595" lon="0.494711">
        <ele>1419.3</ele>
        <time>2019-10-13T09:02:40Z</time>
      </trkpt>
      <trkpt lat="42.750520" lon="0.494712">
        <ele>1422.2</ele>
        <time>2019-10-13T09:02:51Z</time>
      </trkpt>
      <trkpt lat="42.750431" lon="0.494843">
        <ele>1424.0</ele>
        <time>2019-10-13T09:03:01Z</time>
      </trkpt>
      <trkpt lat="42.750339" lon="0.494968">
        <ele>1426.4</ele>
        <time>2019-10-13T09:03:11Z</time>
      </trkpt>
      <trkpt lat="42.750245" lon="0.495086">
        <ele>1428.4</ele>
        <time>2019-10-13T09:03:21Z</time>
      </trkpt>
      <trkpt lat="42.750161" lon="0.495150">
        <ele>1430.4</ele>
        <time>2019-10-13T09:03:31Z</time>
      </trkpt>
      <trkpt lat="42.750062" lon="0.495081">
        <ele>1433.4</ele>
        <time>2019-10-13T09:03:41Z</time>
      </trkpt>
      <trkpt lat="42.750056" lon="0.494952">
        <ele>1437.4</ele>
        <time>2019-10-13T09:03:53Z</time>
      </trkpt>
      <trkpt lat="42.749937" lon="0.494893">
        <ele>1440.0</ele>
        <time>2019-10-13T09:04:03Z</time>
      </trkpt>
      <trkpt lat="42.749944" lon="0.494747">
        <ele>1442.3</ele>
        <time>2019-10-13T09:04:15Z</time>
      </trkpt>
      <trkpt lat="42.749972" lon="0.494650">
        <ele>1444.7</ele>
        <time>2019-10-13T09:04:24Z</time>
      </trkpt>
      <trkpt lat="42.749855" lon="0.494704">
        <ele>1447.1</ele>
        <time>2019-10-13T09:04:34Z</time>
      </trkpt>
      <trkpt lat="42.749791" lon="0.494840">
        <ele>1449.4</ele>
        <time>2019-10-13T09:04:46Z</time>
      </trkpt>
      <trkpt lat="42.749797" lon="0.494993">
        <ele>1451.6</ele>
        <time>2019-10-13T09:04:55Z</time>
      </trkpt>
      <trkpt lat="42.749779" lon="0.495135">
        <ele>1453.7</ele>
        <time>2019-10-13T09:05:02Z</time>
      </trkpt>
      <trkpt lat="42.749738" lon="0.495231">
        <ele>1456.7</ele>
        <time>2019-10-13T09:05:12Z</time>
      </trkpt>
      <trkpt lat="42.749707" lon="0.495108">
        <ele>1458.1</ele>
        <time>2019-10-13T09:05:21Z</time>
      </trkpt>
      <trkpt lat="42.749671" lon="0.495067">
        <ele>1459.3</ele>
        <time>2019-10-13T09:05:30Z</time>
      </trkpt>
      <trkpt lat="42.749661" lon="0.495252">
        <ele>1462.7</ele>
        <time>2019-10-13T09:05:44Z</time>
      </trkpt>
      <trkpt lat="42.749592" lon="0.495342">
        <ele>1465.4</ele>
        <time>2019-10-13T09:05:58Z</time>
      </trkpt>
      <trkpt lat="42.749574" lon="0.495165">
        <ele>1468.2</ele>
        <time>2019-10-13T09:06:13Z</time>
      </trkpt>
      <trkpt lat="42.749564" lon="0.495032">
        <ele>1470.5</ele>
        <time>2019-10-13T09:06:24Z</time>
      </trkpt>
      <trkpt lat="42.749554" lon="0.494887">
        <ele>1473.1</ele>
        <time>2019-10-13T09:06:35Z</time>
      </trkpt>
      <trkpt lat="42.749536" lon="0.494830">
        <ele>1474.9</ele>
        <time>2019-10-13T09:06:44Z</time>
      </trkpt>
      <trkpt lat="42.749473" lon="0.494978">
        <ele>1477.3</ele>
        <time>2019-10-13T09:06:55Z</time>
      </trkpt>
      <trkpt lat="42.749388" lon="0.494925">
        <ele>1480.2</ele>
        <time>2019-10-13T09:07:04Z</time>
      </trkpt>
      <trkpt lat="42.749352" lon="0.494790">
        <ele>1482.3</ele>
        <time>2019-10-13T09:07:13Z</time>
      </trkpt>
      <trkpt lat="42.749345" lon="0.494646">
        <ele>1483.8</ele>
        <time>2019-10-13T09:07:23Z</time>
      </trkpt>
      <trkpt lat="42.749367" lon="0.494511">
        <ele>1486.3</ele>
        <time>2019-10-13T09:07:37Z</time>
      </trkpt>
      <trkpt lat="42.749311" lon="0.494524">
        <ele>1490.2</ele>
        <time>2019-10-13T09:07:52Z</time>
      </trkpt>
      <trkpt lat="42.749230" lon="0.494491">
        <ele>1492.3</ele>
        <time>2019-10-13T09:08:01Z</time>
      </trkpt>
      <trkpt lat="42.749212" lon="0.494362">
        <ele>1493.9</ele>
        <time>2019-10-13T09:08:12Z</time>
      </trkpt>
      <trkpt lat="42.749142" lon="0.494190">
        <ele>1496.2</ele>
        <time>2019-10-13T09:08:27Z</time>
      </trkpt>
      <trkpt lat="42.749010" lon="0.494104">
        <ele>1497.2</ele>
        <time>2019-10-13T09:08:38Z</time>
      </trkpt>
      <trkpt lat="42.748923" lon="0.493960">
        <ele>1498.1</ele>
        <time>2019-10-13T09:08:48Z</time>
      </trkpt>
      <trkpt lat="42.748873" lon="0.493824">
        <ele>1499.3</ele>
        <time>2019-10-13T09:08:58Z</time>
      </trkpt>
      <trkpt lat="42.748821" lon="0.493690">
        <ele>1500.1</ele>
        <time>2019-10-13T09:09:05Z</time>
      </trkpt>
      <trkpt lat="42.748748" lon="0.493578">
        <ele>1500.5</ele>
        <time>2019-10-13T09:09:14Z</time>
      </trkpt>
      <trkpt lat="42.748678" lon="0.493493">
        <ele>1499.7</ele>
        <time>2019-10-13T09:09:24Z</time>
      </trkpt>
      <trkpt lat="42.748566" lon="0.493368">
        <ele>1497.8</ele>
        <time>2019-10-13T09:09:36Z</time>
      </trkpt>
      <trkpt lat="42.748492" lon="0.493252">
        <ele>1496.5</ele>
        <time>2019-10-13T09:09:48Z</time>
      </trkpt>
      <trkpt lat="42.748379" lon="0.493178">
        <ele>1494.6</ele>
        <time>2019-10-13T09:10:01Z</time>
      </trkpt>
      <trkpt lat="42.748274" lon="0.493084">
        <ele>1493.8</ele>
        <time>2019-10-13T09:10:11Z</time>
      </trkpt>
      <trkpt lat="42.748180" lon="0.492894">
        <ele>1493.5</ele>
        <time>2019-10-13T09:10:23Z</time>
      </trkpt>
      <trkpt lat="42.748101" lon="0.492742">
        <ele>1492.8</ele>
        <time>2019-10-13T09:10:33Z</time>
      </trkpt>
      <trkpt lat="42.748005" lon="0.492603">
        <ele>1493.0</ele>
        <time>2019-10-13T09:10:42Z</time>
      </trkpt>
      <trkpt lat="42.747947" lon="0.492443">
        <ele>1494.1</ele>
        <time>2019-10-13T09:10:50Z</time>
      </trkpt>
      <trkpt lat="42.747892" lon="0.492341">
        <ele>1495.6</ele>
        <time>2019-10-13T09:10:57Z</time>
      </trkpt>
      <trkpt lat="42.747807" lon="0.492305">
        <ele>1497.8</ele>
        <time>2019-10-13T09:11:05Z</time>
      </trkpt>
      <trkpt lat="42.747731" lon="0.492251">
        <ele>1500.2</ele>
        <time>2019-10-13T09:11:14Z</time>
      </trkpt>
      <trkpt lat="42.747597" lon="0.492191">
        <ele>1502.9</ele>
        <time>2019-10-13T09:11:25Z</time>
      </trkpt>
      <trkpt lat="42.747482" lon="0.492102">
        <ele>1505.3</ele>
        <time>2019-10-13T09:11:36Z</time>
      </trkpt>
      <trkpt lat="42.747400" lon="0.491975">
        <ele>1505.7</ele>
        <time>2019-10-13T09:11:46Z</time>
      </trkpt>
      <trkpt lat="42.747332" lon="0.491840">
        <ele>1504.4</ele>
        <time>2019-10-13T09:11:55Z</time>
      </trkpt>
      <trkpt lat="42.747242" lon="0.491725">
        <ele>1502.4</ele>
        <time>2019-10-13T09:12:05Z</time>
      </trkpt>
      <trkpt lat="42.747149" lon="0.491630">
        <ele>1501.4</ele>
        <time>2019-10-13T09:12:13Z</time>
      </trkpt>
      <trkpt lat="42.747033" lon="0.491544">
        <ele>1500.3</ele>
        <time>2019-10-13T09:12:22Z</time>
      </trkpt>
      <trkpt lat="42.746950" lon="0.491438">
        <ele>1499.6</ele>
        <time>2019-10-13T09:12:30Z</time>
      </trkpt>
      <trkpt lat="42.746874" lon="0.491326">
        <ele>1498.4</ele>
        <time>2019-10-13T09:12:38Z</time>
      </trkpt>
      <trkpt lat="42.746772" lon="0.491284">
        <ele>1497.2</ele>
        <time>2019-10-13T09:12:46Z</time>
      </trkpt>
      <trkpt lat="42.746668" lon="0.491330">
        <ele>1496.4</ele>
        <time>2019-10-13T09:12:55Z</time>
      </trkpt>
      <trkpt lat="42.746561" lon="0.491339">
        <ele>1495.4</ele>
        <time>2019-10-13T09:13:05Z</time>
      </trkpt>
      <trkpt lat="42.746440" lon="0.491333">
        <ele>1495.2</ele>
        <time>2019-10-13T09:13:14Z</time>
      </trkpt>
      <trkpt lat="42.746342" lon="0.491352">
        <ele>1495.7</ele>
        <time>2019-10-13T09:13:22Z</time>
      </trkpt>
      <trkpt lat="42.746240" lon="0.491404">
        <ele>1497.0</ele>
        <time>2019-10-13T09:13:30Z</time>
      </trkpt>
      <trkpt lat="42.746131" lon="0.491390">
        <ele>1498.0</ele>
        <time>2019-10-13T09:13:38Z</time>
      </trkpt>
      <trkpt lat="42.746023" lon="0.491375">
        <ele>1498.5</ele>
        <time>2019-10-13T09:13:47Z</time>
      </trkpt>
      <trkpt lat="42.745904" lon="0.491374">
        <ele>1498.6</ele>
        <time>2019-10-13T09:13:55Z</time>
      </trkpt>
      <trkpt lat="42.745787" lon="0.491315">
        <ele>1498.6</ele>
        <time>2019-10-13T09:14:04Z</time>
      </trkpt>
      <trkpt lat="42.745691" lon="0.491242">
        <ele>1499.2</ele>
        <time>2019-10-13T09:14:14Z</time>
      </trkpt>
      <trkpt lat="42.745591" lon="0.491228">
        <ele>1499.4</ele>
        <time>2019-10-13T09:14:23Z</time>
      </trkpt>
      <trkpt lat="42.745491" lon="0.491258">
        <ele>1498.0</ele>
        <time>2019-10-13T09:14:34Z</time>
      </trkpt>
      <trkpt lat="42.745393" lon="0.491293">
        <ele>1497.6</ele>
        <time>2019-10-13T09:14:43Z</time>
      </trkpt>
      <trkpt lat="42.745293" lon="0.491329">
        <ele>1497.5</ele>
        <time>2019-10-13T09:14:52Z</time>
      </trkpt>
      <trkpt lat="42.745198" lon="0.491375">
        <ele>1498.0</ele>
        <time>2019-10-13T09:15:00Z</time>
      </trkpt>
      <trkpt lat="42.745106" lon="0.491428">
        <ele>1499.6</ele>
        <time>2019-10-13T09:15:08Z</time>
      </trkpt>
      <trkpt lat="42.745036" lon="0.491526">
        <ele>1502.1</ele>
        <time>2019-10-13T09:15:16Z</time>
      </trkpt>
      <trkpt lat="42.744948" lon="0.491512">
        <ele>1503.7</ele>
        <time>2019-10-13T09:15:26Z</time>
      </trkpt>
      <trkpt lat="42.744859" lon="0.491481">
        <ele>1505.2</ele>
        <time>2019-10-13T09:15:35Z</time>
      </trkpt>
      <trkpt lat="42.744790" lon="0.491571">
        <ele>1507.4</ele>
        <time>2019-10-13T09:15:44Z</time>
      </trkpt>
      <trkpt lat="42.744693" lon="0.491651">
        <ele>1510.3</ele>
        <time>2019-10-13T09:15:53Z</time>
      </trkpt>
      <trkpt lat="42.744606" lon="0.491731">
        <ele>1512.3</ele>
        <time>2019-10-13T09:16:03Z</time>
      </trkpt>
      <trkpt lat="42.744525" lon="0.491727">
        <ele>1516.0</ele>
        <time>2019-10-13T09:16:22Z</time>
      </trkpt>
      <trkpt lat="42.744449" lon="0.491646">
        <ele>1518.6</ele>
        <time>2019-10-13T09:16:37Z</time>
      </trkpt>
      <trkpt lat="42.744358" lon="0.491695">
        <ele>1521.4</ele>
        <time>2019-10-13T09:16:50Z</time>
      </trkpt>
      <trkpt lat="42.744274" lon="0.491746">
        <ele>1523.6</ele>
        <time>2019-10-13T09:17:07Z</time>
      </trkpt>
      <trkpt lat="42.744214" lon="0.491847">
        <ele>1525.2</ele>
        <time>2019-10-13T09:17:23Z</time>
      </trkpt>
      <trkpt lat="42.744191" lon="0.491988">
        <ele>1526.4</ele>
        <time>2019-10-13T09:17:35Z</time>
      </trkpt>
      <trkpt lat="42.744142" lon="0.492102">
        <ele>1525.9</ele>
        <time>2019-10-13T09:17:47Z</time>
      </trkpt>
      <trkpt lat="42.744113" lon="0.492027">
        <ele>1525.9</ele>
        <time>2019-10-13T09:18:41Z</time>
      </trkpt>
      <trkpt lat="42.744056" lon="0.492086">
        <ele>1526.9</ele>
        <time>2019-10-13T09:18:54Z</time>
      </trkpt>
      <trkpt lat="42.744017" lon="0.492213">
        <ele>1528.2</ele>
        <time>2019-10-13T09:19:01Z</time>
      </trkpt>
      <trkpt lat="42.743969" lon="0.492330">
        <ele>1530.2</ele>
        <time>2019-10-13T09:19:08Z</time>
      </trkpt>
      <trkpt lat="42.743904" lon="0.492433">
        <ele>1531.0</ele>
        <time>2019-10-13T09:19:16Z</time>
      </trkpt>
      <trkpt lat="42.743873" lon="0.492562">
        <ele>1530.4</ele>
        <time>2019-10-13T09:19:24Z</time>
      </trkpt>
      <trkpt lat="42.743877" lon="0.492701">
        <ele>1530.6</ele>
        <time>2019-10-13T09:19:32Z</time>
      </trkpt>
      <trkpt lat="42.743890" lon="0.492852">
        <ele>1531.1</ele>
        <time>2019-10-13T09:19:40Z</time>
      </trkpt>
      <trkpt lat="42.743864" lon="0.492993">
        <ele>1532.2</ele>
        <time>2019-10-13T09:19:48Z</time>
      </trkpt>
      <trkpt lat="42.743852" lon="0.493144">
        <ele>1533.6</ele>
        <time>2019-10-13T09:19:56Z</time>
      </trkpt>
      <trkpt lat="42.743851" lon="0.493292">
        <ele>1534.8</ele>
        <time>2019-10-13T09:20:04Z</time>
      </trkpt>
      <trkpt lat="42.743802" lon="0.493478">
        <ele>1535.8</ele>
        <time>2019-10-13T09:20:13Z</time>
      </trkpt>
      <trkpt lat="42.743721" lon="0.493670">
        <ele>1536.7</ele>
        <time>2019-10-13T09:20:24Z</time>
      </trkpt>
      <trkpt lat="42.743646" lon="0.493776">
        <ele>1536.8</ele>
        <time>2019-10-13T09:20:39Z</time>
      </trkpt>
      <trkpt lat="42.743543" lon="0.493940">
        <ele>1535.8</ele>
        <time>2019-10-13T09:20:51Z</time>
      </trkpt>
      <trkpt lat="42.743452" lon="0.494044">
        <ele>1535.7</ele>
        <time>2019-10-13T09:21:03Z</time>
      </trkpt>
      <trkpt lat="42.743383" lon="0.494138">
        <ele>1536.3</ele>
        <time>2019-10-13T09:21:11Z</time>
      </trkpt>
      <trkpt lat="42.743341" lon="0.494301">
        <ele>1537.3</ele>
        <time>2019-10-13T09:21:19Z</time>
      </trkpt>
      <trkpt lat="42.743294" lon="0.494482">
        <ele>1539.0</ele>
        <time>2019-10-13T09:21:28Z</time>
      </trkpt>
      <trkpt lat="42.743223" lon="0.494629">
        <ele>1541.0</ele>
        <time>2019-10-13T09:21:36Z</time>
      </trkpt>
      <trkpt lat="42.743182" lon="0.494776">
        <ele>1543.6</ele>
        <time>2019-10-13T09:21:46Z</time>
      </trkpt>
      <trkpt lat="42.743186" lon="0.494962">
        <ele>1546.1</ele>
        <time>2019-10-13T09:21:55Z</time>
      </trkpt>
      <trkpt lat="42.743165" lon="0.495115">
        <ele>1547.4</ele>
        <time>2019-10-13T09:22:05Z</time>
      </trkpt>
      <trkpt lat="42.743090" lon="0.495232">
        <ele>1549.3</ele>
        <time>2019-10-13T09:22:13Z</time>
      </trkpt>
      <trkpt lat="42.743007" lon="0.495337">
        <ele>1552.1</ele>
        <time>2019-10-13T09:22:20Z</time>
      </trkpt>
      <trkpt lat="42.742923" lon="0.495463">
        <ele>1553.9</ele>
        <time>2019-10-13T09:22:29Z</time>
      </trkpt>
      <trkpt lat="42.742792" lon="0.495574">
        <ele>1555.9</ele>
        <time>2019-10-13T09:22:37Z</time>
      </trkpt>
      <trkpt lat="42.742686" lon="0.495644">
        <ele>1558.3</ele>
        <time>2019-10-13T09:22:45Z</time>
      </trkpt>
      <trkpt lat="42.742595" lon="0.495741">
        <ele>1560.9</ele>
        <time>2019-10-13T09:22:56Z</time>
      </trkpt>
      <trkpt lat="42.742516" lon="0.495822">
        <ele>1562.8</ele>
        <time>2019-10-13T09:23:05Z</time>
      </trkpt>
      <trkpt lat="42.742430" lon="0.495898">
        <ele>1564.2</ele>
        <time>2019-10-13T09:23:15Z</time>
      </trkpt>
      <trkpt lat="42.742352" lon="0.495945">
        <ele>1564.7</ele>
        <time>2019-10-13T09:23:29Z</time>
      </trkpt>
      <trkpt lat="42.742265" lon="0.496024">
        <ele>1566.5</ele>
        <time>2019-10-13T09:23:46Z</time>
      </trkpt>
      <trkpt lat="42.742186" lon="0.496100">
        <ele>1567.9</ele>
        <time>2019-10-13T09:23:56Z</time>
      </trkpt>
      <trkpt lat="42.742104" lon="0.496196">
        <ele>1572.1</ele>
        <time>2019-10-13T09:24:28Z</time>
      </trkpt>
      <trkpt lat="42.742067" lon="0.496325">
        <ele>1574.6</ele>
        <time>2019-10-13T09:24:36Z</time>
      </trkpt>
      <trkpt lat="42.742006" lon="0.496447">
        <ele>1575.6</ele>
        <time>2019-10-13T09:24:44Z</time>
      </trkpt>
      <trkpt lat="42.741955" lon="0.496579">
        <ele>1577.2</ele>
        <time>2019-10-13T09:24:52Z</time>
      </trkpt>
      <trkpt lat="42.741917" lon="0.496705">
        <ele>1579.4</ele>
        <time>2019-10-13T09:24:59Z</time>
      </trkpt>
      <trkpt lat="42.741875" lon="0.496823">
        <ele>1582.5</ele>
        <time>2019-10-13T09:25:08Z</time>
      </trkpt>
      <trkpt lat="42.741790" lon="0.496850">
        <ele>1584.4</ele>
        <time>2019-10-13T09:25:19Z</time>
      </trkpt>
      <trkpt lat="42.741692" lon="0.496871">
        <ele>1586.2</ele>
        <time>2019-10-13T09:25:26Z</time>
      </trkpt>
      <trkpt lat="42.741577" lon="0.496874">
        <ele>1588.2</ele>
        <time>2019-10-13T09:25:33Z</time>
      </trkpt>
      <trkpt lat="42.741487" lon="0.496927">
        <ele>1589.4</ele>
        <time>2019-10-13T09:25:40Z</time>
      </trkpt>
      <trkpt lat="42.741421" lon="0.497057">
        <ele>1591.4</ele>
        <time>2019-10-13T09:25:52Z</time>
      </trkpt>
      <trkpt lat="42.741367" lon="0.497194">
        <ele>1594.4</ele>
        <time>2019-10-13T09:26:01Z</time>
      </trkpt>
      <trkpt lat="42.741308" lon="0.497310">
        <ele>1596.9</ele>
        <time>2019-10-13T09:26:12Z</time>
      </trkpt>
      <trkpt lat="42.741388" lon="0.497326">
        <ele>1598.7</ele>
        <time>2019-10-13T09:26:30Z</time>
      </trkpt>
      <trkpt lat="42.741458" lon="0.497271">
        <ele>1602.3</ele>
        <time>2019-10-13T09:26:52Z</time>
      </trkpt>
      <trkpt lat="42.741561" lon="0.497269">
        <ele>1604.7</ele>
        <time>2019-10-13T09:27:03Z</time>
      </trkpt>
      <trkpt lat="42.741506" lon="0.497365">
        <ele>1607.1</ele>
        <time>2019-10-13T09:27:12Z</time>
      </trkpt>
      <trkpt lat="42.741436" lon="0.497469">
        <ele>1608.9</ele>
        <time>2019-10-13T09:27:20Z</time>
      </trkpt>
      <trkpt lat="42.741382" lon="0.497589">
        <ele>1611.4</ele>
        <time>2019-10-13T09:27:30Z</time>
      </trkpt>
      <trkpt lat="42.741459" lon="0.497549">
        <ele>1614.7</ele>
        <time>2019-10-13T09:27:41Z</time>
      </trkpt>
      <trkpt lat="42.741559" lon="0.497509">
        <ele>1617.1</ele>
        <time>2019-10-13T09:27:51Z</time>
      </trkpt>
      <trkpt lat="42.741554" lon="0.497562">
        <ele>1619.9</ele>
        <time>2019-10-13T09:28:01Z</time>
      </trkpt>
      <trkpt lat="42.741504" lon="0.497666">
        <ele>1621.4</ele>
        <time>2019-10-13T09:28:09Z</time>
      </trkpt>
      <trkpt lat="42.741456" lon="0.497786">
        <ele>1623.6</ele>
        <time>2019-10-13T09:28:17Z</time>
      </trkpt>
      <trkpt lat="42.741436" lon="0.497884">
        <ele>1626.6</ele>
        <time>2019-10-13T09:28:26Z</time>
      </trkpt>
      <trkpt lat="42.741539" lon="0.497825">
        <ele>1630.1</ele>
        <time>2019-10-13T09:28:37Z</time>
      </trkpt>
      <trkpt lat="42.741643" lon="0.497786">
        <ele>1633.2</ele>
        <time>2019-10-13T09:28:47Z</time>
      </trkpt>
      <trkpt lat="42.741652" lon="0.497904">
        <ele>1638.1</ele>
        <time>2019-10-13T09:29:01Z</time>
      </trkpt>
      <trkpt lat="42.741679" lon="0.498007">
        <ele>1642.7</ele>
        <time>2019-10-13T09:29:16Z</time>
      </trkpt>
      <trkpt lat="42.741658" lon="0.498103">
        <ele>1645.6</ele>
        <time>2019-10-13T09:29:27Z</time>
      </trkpt>
      <trkpt lat="42.741704" lon="0.498168">
        <ele>1648.6</ele>
        <time>2019-10-13T09:29:40Z</time>
      </trkpt>
      <trkpt lat="42.741775" lon="0.498239">
        <ele>1651.7</ele>
        <time>2019-10-13T09:29:52Z</time>
      </trkpt>
      <trkpt lat="42.741763" lon="0.498298">
        <ele>1654.7</ele>
        <time>2019-10-13T09:30:04Z</time>
      </trkpt>
      <trkpt lat="42.741804" lon="0.498330">
        <ele>1654.2</ele>
        <time>2019-10-13T09:31:37Z</time>
      </trkpt>
      <trkpt lat="42.741780" lon="0.498398">
        <ele>1657.5</ele>
        <time>2019-10-13T09:40:22Z</time>
      </trkpt>
      <trkpt lat="42.741694" lon="0.498366">
        <ele>1661.6</ele>
        <time>2019-10-13T09:40:37Z</time>
      </trkpt>
      <trkpt lat="42.741604" lon="0.498345">
        <ele>1664.6</ele>
        <time>2019-10-13T09:40:49Z</time>
      </trkpt>
      <trkpt lat="42.741592" lon="0.498404">
        <ele>1668.6</ele>
        <time>2019-10-13T09:41:03Z</time>
      </trkpt>
      <trkpt lat="42.741670" lon="0.498490">
        <ele>1671.6</ele>
        <time>2019-10-13T09:41:18Z</time>
      </trkpt>
      <trkpt lat="42.741604" lon="0.498534">
        <ele>1675.1</ele>
        <time>2019-10-13T09:41:30Z</time>
      </trkpt>
      <trkpt lat="42.741485" lon="0.498495">
        <ele>1677.3</ele>
        <time>2019-10-13T09:41:42Z</time>
      </trkpt>
      <trkpt lat="42.741366" lon="0.498500">
        <ele>1679.2</ele>
        <time>2019-10-13T09:41:53Z</time>
      </trkpt>
      <trkpt lat="42.741240" lon="0.498503">
        <ele>1682.4</ele>
        <time>2019-10-13T09:42:09Z</time>
      </trkpt>
      <trkpt lat="42.741135" lon="0.498545">
        <ele>1685.9</ele>
        <time>2019-10-13T09:42:25Z</time>
      </trkpt>
      <trkpt lat="42.741034" lon="0.498604">
        <ele>1688.6</ele>
        <time>2019-10-13T09:42:38Z</time>
      </trkpt>
      <trkpt lat="42.740947" lon="0.498685">
        <ele>1690.2</ele>
        <time>2019-10-13T09:42:49Z</time>
      </trkpt>
      <trkpt lat="42.740841" lon="0.498762">
        <ele>1691.5</ele>
        <time>2019-10-13T09:43:00Z</time>
      </trkpt>
      <trkpt lat="42.740720" lon="0.498839">
        <ele>1694.0</ele>
        <time>2019-10-13T09:43:13Z</time>
      </trkpt>
      <trkpt lat="42.740569" lon="0.498841">
        <ele>1696.6</ele>
        <time>2019-10-13T09:43:31Z</time>
      </trkpt>
      <trkpt lat="42.740467" lon="0.498863">
        <ele>1696.8</ele>
        <time>2019-10-13T09:43:44Z</time>
      </trkpt>
      <trkpt lat="42.740351" lon="0.498894">
        <ele>1697.8</ele>
        <time>2019-10-13T09:43:53Z</time>
      </trkpt>
      <trkpt lat="42.740235" lon="0.498885">
        <ele>1699.0</ele>
        <time>2019-10-13T09:44:03Z</time>
      </trkpt>
      <trkpt lat="42.740127" lon="0.498860">
        <ele>1697.3</ele>
        <time>2019-10-13T09:44:15Z</time>
      </trkpt>
      <trkpt lat="42.740024" lon="0.498891">
        <ele>1695.5</ele>
        <time>2019-10-13T09:44:25Z</time>
      </trkpt>
      <trkpt lat="42.739916" lon="0.498904">
        <ele>1694.7</ele>
        <time>2019-10-13T09:44:34Z</time>
      </trkpt>
      <trkpt lat="42.739812" lon="0.498926">
        <ele>1696.9</ele>
        <time>2019-10-13T09:44:59Z</time>
      </trkpt>
      <trkpt lat="42.739707" lon="0.498922">
        <ele>1698.4</ele>
        <time>2019-10-13T09:45:08Z</time>
      </trkpt>
      <trkpt lat="42.739604" lon="0.498919">
        <ele>1699.4</ele>
        <time>2019-10-13T09:45:16Z</time>
      </trkpt>
      <trkpt lat="42.739500" lon="0.498918">
        <ele>1700.4</ele>
        <time>2019-10-13T09:45:23Z</time>
      </trkpt>
      <trkpt lat="42.739408" lon="0.498832">
        <ele>1702.7</ele>
        <time>2019-10-13T09:45:32Z</time>
      </trkpt>
      <trkpt lat="42.739309" lon="0.498808">
        <ele>1703.7</ele>
        <time>2019-10-13T09:45:42Z</time>
      </trkpt>
      <trkpt lat="42.739234" lon="0.498880">
        <ele>1703.0</ele>
        <time>2019-10-13T09:45:50Z</time>
      </trkpt>
      <trkpt lat="42.739180" lon="0.499002">
        <ele>1702.2</ele>
        <time>2019-10-13T09:45:59Z</time>
      </trkpt>
      <trkpt lat="42.739122" lon="0.499102">
        <ele>1701.9</ele>
        <time>2019-10-13T09:46:08Z</time>
      </trkpt>
      <trkpt lat="42.739043" lon="0.499182">
        <ele>1704.2</ele>
        <time>2019-10-13T09:46:17Z</time>
      </trkpt>
      <trkpt lat="42.738954" lon="0.499263">
        <ele>1706.2</ele>
        <time>2019-10-13T09:46:26Z</time>
      </trkpt>
      <trkpt lat="42.738846" lon="0.499266">
        <ele>1708.5</ele>
        <time>2019-10-13T09:46:39Z</time>
      </trkpt>
      <trkpt lat="42.738787" lon="0.499192">
        <ele>1705.6</ele>
        <time>2019-10-13T09:47:06Z</time>
      </trkpt>
      <trkpt lat="42.738724" lon="0.499085">
        <ele>1705.4</ele>
        <time>2019-10-13T09:47:17Z</time>
      </trkpt>
      <trkpt lat="42.738642" lon="0.499003">
        <ele>1707.6</ele>
        <time>2019-10-13T09:47:25Z</time>
      </trkpt>
      <trkpt lat="42.738546" lon="0.498900">
        <ele>1709.2</ele>
        <time>2019-10-13T09:47:36Z</time>
      </trkpt>
      <trkpt lat="42.738448" lon="0.498836">
        <ele>1708.6</ele>
        <time>2019-10-13T09:47:46Z</time>
      </trkpt>
      <trkpt lat="42.738359" lon="0.498891">
        <ele>1707.6</ele>
        <time>2019-10-13T09:47:55Z</time>
      </trkpt>
      <trkpt lat="42.738275" lon="0.498950">
        <ele>1707.9</ele>
        <time>2019-10-13T09:48:02Z</time>
      </trkpt>
      <trkpt lat="42.738179" lon="0.499007">
        <ele>1707.1</ele>
        <time>2019-10-13T09:48:10Z</time>
      </trkpt>
      <trkpt lat="42.738076" lon="0.499053">
        <ele>1706.5</ele>
        <time>2019-10-13T09:48:19Z</time>
      </trkpt>
      <trkpt lat="42.737975" lon="0.499088">
        <ele>1708.7</ele>
        <time>2019-10-13T09:48:28Z</time>
      </trkpt>
      <trkpt lat="42.737878" lon="0.499138">
        <ele>1710.2</ele>
        <time>2019-10-13T09:48:38Z</time>
      </trkpt>
      <trkpt lat="42.737834" lon="0.499249">
        <ele>1708.4</ele>
        <time>2019-10-13T09:49:58Z</time>
      </trkpt>
      <trkpt lat="42.737717" lon="0.499175">
        <ele>1711.9</ele>
        <time>2019-10-13T09:50:14Z</time>
      </trkpt>
      <trkpt lat="42.737652" lon="0.499194">
        <ele>1713.8</ele>
        <time>2019-10-13T09:51:01Z</time>
      </trkpt>
      <trkpt lat="42.737625" lon="0.499156">
        <ele>1717.9</ele>
        <time>2019-10-13T09:52:08Z</time>
      </trkpt>
      <trkpt lat="42.737566" lon="0.499128">
        <ele>1721.8</ele>
        <time>2019-10-13T09:52:46Z</time>
      </trkpt>
      <trkpt lat="42.737583" lon="0.498978">
        <ele>1723.4</ele>
        <time>2019-10-13T09:53:04Z</time>
      </trkpt>
      <trkpt lat="42.737526" lon="0.498862">
        <ele>1725.3</ele>
        <time>2019-10-13T09:53:19Z</time>
      </trkpt>
      <trkpt lat="42.737440" lon="0.498782">
        <ele>1727.9</ele>
        <time>2019-10-13T09:53:37Z</time>
      </trkpt>
      <trkpt lat="42.737372" lon="0.498689">
        <ele>1731.6</ele>
        <time>2019-10-13T09:54:24Z</time>
      </trkpt>
      <trkpt lat="42.737347" lon="0.498794">
        <ele>1733.5</ele>
        <time>2019-10-13T09:54:43Z</time>
      </trkpt>
      <trkpt lat="42.737286" lon="0.498803">
        <ele>1736.8</ele>
        <time>2019-10-13T09:55:01Z</time>
      </trkpt>
      <trkpt lat="42.737194" lon="0.498852">
        <ele>1739.0</ele>
        <time>2019-10-13T09:55:20Z</time>
      </trkpt>
      <trkpt lat="42.737093" lon="0.498785">
        <ele>1742.6</ele>
        <time>2019-10-13T09:55:41Z</time>
      </trkpt>
      <trkpt lat="42.736993" lon="0.498804">
        <ele>1745.7</ele>
        <time>2019-10-13T09:56:00Z</time>
      </trkpt>
      <trkpt lat="42.736964" lon="0.498920">
        <ele>1748.2</ele>
        <time>2019-10-13T09:56:18Z</time>
      </trkpt>
      <trkpt lat="42.737006" lon="0.499048">
        <ele>1749.0</ele>
        <time>2019-10-13T09:56:32Z</time>
      </trkpt>
      <trkpt lat="42.737070" lon="0.499152">
        <ele>1752.6</ele>
        <time>2019-10-13T09:56:57Z</time>
      </trkpt>
      <trkpt lat="42.737147" lon="0.499188">
        <ele>1754.8</ele>
        <time>2019-10-13T09:57:15Z</time>
      </trkpt>
      <trkpt lat="42.737062" lon="0.499255">
        <ele>1758.1</ele>
        <time>2019-10-13T09:57:33Z</time>
      </trkpt>
      <trkpt lat="42.736973" lon="0.499308">
        <ele>1761.9</ele>
        <time>2019-10-13T09:57:57Z</time>
      </trkpt>
      <trkpt lat="42.736850" lon="0.499317">
        <ele>1765.8</ele>
        <time>2019-10-13T09:58:14Z</time>
      </trkpt>
      <trkpt lat="42.736745" lon="0.499253">
        <ele>1768.8</ele>
        <time>2019-10-13T09:58:27Z</time>
      </trkpt>
      <trkpt lat="42.736657" lon="0.499185">
        <ele>1769.9</ele>
        <time>2019-10-13T09:58:42Z</time>
      </trkpt>
      <trkpt lat="42.736565" lon="0.499155">
        <ele>1772.8</ele>
        <time>2019-10-13T09:59:00Z</time>
      </trkpt>
      <trkpt lat="42.736461" lon="0.499135">
        <ele>1773.3</ele>
        <time>2019-10-13T09:59:21Z</time>
      </trkpt>
      <trkpt lat="42.736375" lon="0.499017">
        <ele>1772.7</ele>
        <time>2019-10-13T10:34:34Z</time>
      </trkpt>
      <trkpt lat="42.736298" lon="0.499051">
        <ele>1775.8</ele>
        <time>2019-10-13T10:34:53Z</time>
      </trkpt>
      <trkpt lat="42.736238" lon="0.499153">
        <ele>1778.9</ele>
        <time>2019-10-13T10:35:17Z</time>
      </trkpt>
      <trkpt lat="42.736166" lon="0.499202">
        <ele>1782.1</ele>
        <time>2019-10-13T10:35:43Z</time>
      </trkpt>
      <trkpt lat="42.736092" lon="0.499262">
        <ele>1786.3</ele>
        <time>2019-10-13T10:36:16Z</time>
      </trkpt>
      <trkpt lat="42.736003" lon="0.499301">
        <ele>1788.5</ele>
        <time>2019-10-13T10:36:27Z</time>
      </trkpt>
      <trkpt lat="42.735931" lon="0.499370">
        <ele>1791.1</ele>
        <time>2019-10-13T10:36:38Z</time>
      </trkpt>
      <trkpt lat="42.735830" lon="0.499376">
        <ele>1793.6</ele>
        <time>2019-10-13T10:37:01Z</time>
      </trkpt>
      <trkpt lat="42.735719" lon="0.499353">
        <ele>1796.6</ele>
        <time>2019-10-13T10:37:16Z</time>
      </trkpt>
      <trkpt lat="42.735639" lon="0.499291">
        <ele>1798.3</ele>
        <time>2019-10-13T10:37:28Z</time>
      </trkpt>
      <trkpt lat="42.735633" lon="0.499399">
        <ele>1800.9</ele>
        <time>2019-10-13T10:37:41Z</time>
      </trkpt>
      <trkpt lat="42.735601" lon="0.499448">
        <ele>1805.5</ele>
        <time>2019-10-13T10:37:58Z</time>
      </trkpt>
      <trkpt lat="42.735515" lon="0.499424">
        <ele>1807.8</ele>
        <time>2019-10-13T10:38:12Z</time>
      </trkpt>
      <trkpt lat="42.735466" lon="0.499486">
        <ele>1809.8</ele>
        <time>2019-10-13T10:38:26Z</time>
      </trkpt>
      <trkpt lat="42.735375" lon="0.499478">
        <ele>1813.9</ele>
        <time>2019-10-13T10:38:45Z</time>
      </trkpt>
      <trkpt lat="42.735298" lon="0.499549">
        <ele>1817.3</ele>
        <time>2019-10-13T10:38:57Z</time>
      </trkpt>
      <trkpt lat="42.735203" lon="0.499589">
        <ele>1820.5</ele>
        <time>2019-10-13T10:39:10Z</time>
      </trkpt>
      <trkpt lat="42.735112" lon="0.499611">
        <ele>1823.7</ele>
        <time>2019-10-13T10:39:21Z</time>
      </trkpt>
      <trkpt lat="42.735094" lon="0.499681">
        <ele>1827.1</ele>
        <time>2019-10-13T10:39:34Z</time>
      </trkpt>
      <trkpt lat="42.734992" lon="0.499678">
        <ele>1829.7</ele>
        <time>2019-10-13T10:39:44Z</time>
      </trkpt>
      <trkpt lat="42.734882" lon="0.499648">
        <ele>1832.2</ele>
        <time>2019-10-13T10:39:58Z</time>
      </trkpt>
      <trkpt lat="42.734809" lon="0.499683">
        <ele>1834.5</ele>
        <time>2019-10-13T10:40:11Z</time>
      </trkpt>
      <trkpt lat="42.734770" lon="0.499571">
        <ele>1836.3</ele>
        <time>2019-10-13T10:40:23Z</time>
      </trkpt>
      <trkpt lat="42.734711" lon="0.499511">
        <ele>1839.4</ele>
        <time>2019-10-13T10:40:37Z</time>
      </trkpt>
      <trkpt lat="42.734635" lon="0.499556">
        <ele>1839.6</ele>
        <time>2019-10-13T10:40:48Z</time>
      </trkpt>
      <trkpt lat="42.734614" lon="0.499673">
        <ele>1841.1</ele>
        <time>2019-10-13T10:40:59Z</time>
      </trkpt>
      <trkpt lat="42.734526" lon="0.499675">
        <ele>1843.4</ele>
        <time>2019-10-13T10:41:14Z</time>
      </trkpt>
      <trkpt lat="42.734507" lon="0.499799">
        <ele>1846.2</ele>
        <time>2019-10-13T10:41:26Z</time>
      </trkpt>
      <trkpt lat="42.734450" lon="0.499893">
        <ele>1849.5</ele>
        <time>2019-10-13T10:41:37Z</time>
      </trkpt>
      <trkpt lat="42.734347" lon="0.499897">
        <ele>1851.6</ele>
        <time>2019-10-13T10:41:46Z</time>
      </trkpt>
      <trkpt lat="42.734238" lon="0.499893">
        <ele>1854.8</ele>
        <time>2019-10-13T10:41:58Z</time>
      </trkpt>
      <trkpt lat="42.734114" lon="0.499885">
        <ele>1859.7</ele>
        <time>2019-10-13T10:42:12Z</time>
      </trkpt>
      <trkpt lat="42.734007" lon="0.499884">
        <ele>1862.0</ele>
        <time>2019-10-13T10:42:23Z</time>
      </trkpt>
      <trkpt lat="42.733882" lon="0.499798">
        <ele>1865.0</ele>
        <time>2019-10-13T10:42:39Z</time>
      </trkpt>
      <trkpt lat="42.733817" lon="0.499737">
        <ele>1867.6</ele>
        <time>2019-10-13T10:42:52Z</time>
      </trkpt>
      <trkpt lat="42.733744" lon="0.499831">
        <ele>1873.2</ele>
        <time>2019-10-13T10:43:20Z</time>
      </trkpt>
      <trkpt lat="42.733676" lon="0.499877">
        <ele>1876.1</ele>
        <time>2019-10-13T10:43:30Z</time>
      </trkpt>
      <trkpt lat="42.733640" lon="0.499996">
        <ele>1877.9</ele>
        <time>2019-10-13T10:43:39Z</time>
      </trkpt>
      <trkpt lat="42.733568" lon="0.500097">
        <ele>1880.1</ele>
        <time>2019-10-13T10:43:50Z</time>
      </trkpt>
      <trkpt lat="42.733473" lon="0.500142">
        <ele>1882.3</ele>
        <time>2019-10-13T10:43:59Z</time>
      </trkpt>
      <trkpt lat="42.733364" lon="0.500135">
        <ele>1886.2</ele>
        <time>2019-10-13T10:44:12Z</time>
      </trkpt>
      <trkpt lat="42.733244" lon="0.500120">
        <ele>1889.7</ele>
        <time>2019-10-13T10:44:31Z</time>
      </trkpt>
      <trkpt lat="42.733146" lon="0.500158">
        <ele>1892.2</ele>
        <time>2019-10-13T10:44:43Z</time>
      </trkpt>
      <trkpt lat="42.733051" lon="0.500196">
        <ele>1893.5</ele>
        <time>2019-10-13T10:44:53Z</time>
      </trkpt>
      <trkpt lat="42.732920" lon="0.500196">
        <ele>1896.2</ele>
        <time>2019-10-13T10:46:44Z</time>
      </trkpt>
      <trkpt lat="42.732817" lon="0.500231">
        <ele>1895.0</ele>
        <time>2019-10-13T10:46:58Z</time>
      </trkpt>
      <trkpt lat="42.732719" lon="0.500284">
        <ele>1895.2</ele>
        <time>2019-10-13T10:47:08Z</time>
      </trkpt>
      <trkpt lat="42.732637" lon="0.500347">
        <ele>1896.3</ele>
        <time>2019-10-13T10:47:17Z</time>
      </trkpt>
      <trkpt lat="42.732548" lon="0.500430">
        <ele>1899.0</ele>
        <time>2019-10-13T10:47:29Z</time>
      </trkpt>
      <trkpt lat="42.732462" lon="0.500451">
        <ele>1901.0</ele>
        <time>2019-10-13T10:47:37Z</time>
      </trkpt>
      <trkpt lat="42.732400" lon="0.500488">
        <ele>1905.2</ele>
        <time>2019-10-13T10:47:51Z</time>
      </trkpt>
      <trkpt lat="42.732358" lon="0.500589">
        <ele>1906.9</ele>
        <time>2019-10-13T10:48:01Z</time>
      </trkpt>
      <trkpt lat="42.732289" lon="0.500506">
        <ele>1910.1</ele>
        <time>2019-10-13T10:48:16Z</time>
      </trkpt>
      <trkpt lat="42.732211" lon="0.500530">
        <ele>1912.7</ele>
        <time>2019-10-13T10:48:28Z</time>
      </trkpt>
      <trkpt lat="42.732133" lon="0.500607">
        <ele>1914.1</ele>
        <time>2019-10-13T10:48:42Z</time>
      </trkpt>
      <trkpt lat="42.732020" lon="0.500576">
        <ele>1914.4</ele>
        <time>2019-10-13T10:48:53Z</time>
      </trkpt>
      <trkpt lat="42.731927" lon="0.500610">
        <ele>1918.3</ele>
        <time>2019-10-13T10:49:03Z</time>
      </trkpt>
      <trkpt lat="42.731865" lon="0.500559">
        <ele>1923.9</ele>
        <time>2019-10-13T10:49:15Z</time>
      </trkpt>
      <trkpt lat="42.731798" lon="0.500600">
        <ele>1926.3</ele>
        <time>2019-10-13T10:49:27Z</time>
      </trkpt>
      <trkpt lat="42.731715" lon="0.500597">
        <ele>1930.0</ele>
        <time>2019-10-13T10:49:53Z</time>
      </trkpt>
      <trkpt lat="42.731660" lon="0.500672">
        <ele>1932.8</ele>
        <time>2019-10-13T10:50:09Z</time>
      </trkpt>
      <trkpt lat="42.731600" lon="0.500733">
        <ele>1934.8</ele>
        <time>2019-10-13T10:50:21Z</time>
      </trkpt>
      <trkpt lat="42.731613" lon="0.500850">
        <ele>1937.8</ele>
        <time>2019-10-13T10:50:31Z</time>
      </trkpt>
      <trkpt lat="42.731515" lon="0.500829">
        <ele>1939.7</ele>
        <time>2019-10-13T10:50:40Z</time>
      </trkpt>
      <trkpt lat="42.731421" lon="0.500817">
        <ele>1943.1</ele>
        <time>2019-10-13T10:50:51Z</time>
      </trkpt>
      <trkpt lat="42.731374" lon="0.500827">
        <ele>1948.4</ele>
        <time>2019-10-13T10:51:03Z</time>
      </trkpt>
      <trkpt lat="42.731310" lon="0.500837">
        <ele>1952.4</ele>
        <time>2019-10-13T10:51:16Z</time>
      </trkpt>
      <trkpt lat="42.731285" lon="0.500923">
        <ele>1954.3</ele>
        <time>2019-10-13T10:51:30Z</time>
      </trkpt>
      <trkpt lat="42.731204" lon="0.500862">
        <ele>1958.7</ele>
        <time>2019-10-13T10:51:45Z</time>
      </trkpt>
      <trkpt lat="42.731137" lon="0.500795">
        <ele>1958.2</ele>
        <time>2019-10-13T10:51:54Z</time>
      </trkpt>
      <trkpt lat="42.731038" lon="0.500823">
        <ele>1958.4</ele>
        <time>2019-10-13T10:52:02Z</time>
      </trkpt>
      <trkpt lat="42.730955" lon="0.500885">
        <ele>1961.3</ele>
        <time>2019-10-13T10:52:11Z</time>
      </trkpt>
      <trkpt lat="42.730871" lon="0.500942">
        <ele>1963.4</ele>
        <time>2019-10-13T10:52:21Z</time>
      </trkpt>
      <trkpt lat="42.730797" lon="0.500983">
        <ele>1965.2</ele>
        <time>2019-10-13T10:52:32Z</time>
      </trkpt>
      <trkpt lat="42.730725" lon="0.501063">
        <ele>1966.2</ele>
        <time>2019-10-13T10:52:40Z</time>
      </trkpt>
      <trkpt lat="42.730726" lon="0.501019">
        <ele>1970.3</ele>
        <time>2019-10-13T10:53:01Z</time>
      </trkpt>
      <trkpt lat="42.730760" lon="0.500921">
        <ele>1968.2</ele>
        <time>2019-10-13T10:53:12Z</time>
      </trkpt>
      <trkpt lat="42.730663" lon="0.500909">
        <ele>1964.7</ele>
        <time>2019-10-13T10:53:23Z</time>
      </trkpt>
      <trkpt lat="42.730565" lon="0.500867">
        <ele>1962.7</ele>
        <time>2019-10-13T10:53:34Z</time>
      </trkpt>
      <trkpt lat="42.730473" lon="0.500873">
        <ele>1959.8</ele>
        <time>2019-10-13T10:53:50Z</time>
      </trkpt>
      <trkpt lat="42.730394" lon="0.500919">
        <ele>1958.6</ele>
        <time>2019-10-13T10:54:01Z</time>
      </trkpt>
      <trkpt lat="42.730319" lon="0.500969">
        <ele>1957.9</ele>
        <time>2019-10-13T10:54:10Z</time>
      </trkpt>
      <trkpt lat="42.730235" lon="0.501041">
        <ele>1955.9</ele>
        <time>2019-10-13T10:54:21Z</time>
      </trkpt>
      <trkpt lat="42.730148" lon="0.501109">
        <ele>1953.5</ele>
        <time>2019-10-13T10:54:33Z</time>
      </trkpt>
      <trkpt lat="42.730073" lon="0.501197">
        <ele>1950.4</ele>
        <time>2019-10-13T10:54:47Z</time>
      </trkpt>
      <trkpt lat="42.729995" lon="0.501284">
        <ele>1947.7</ele>
        <time>2019-10-13T10:55:00Z</time>
      </trkpt>
      <trkpt lat="42.729892" lon="0.501320">
        <ele>1945.4</ele>
        <time>2019-10-13T10:55:15Z</time>
      </trkpt>
      <trkpt lat="42.729788" lon="0.501322">
        <ele>1942.7</ele>
        <time>2019-10-13T10:55:29Z</time>
      </trkpt>
      <trkpt lat="42.729713" lon="0.501401">
        <ele>1940.9</ele>
        <time>2019-10-13T10:55:41Z</time>
      </trkpt>
      <trkpt lat="42.729622" lon="0.501427">
        <ele>1938.9</ele>
        <time>2019-10-13T10:55:55Z</time>
      </trkpt>
      <trkpt lat="42.729529" lon="0.501422">
        <ele>1937.9</ele>
        <time>2019-10-13T10:56:09Z</time>
      </trkpt>
      <trkpt lat="42.729454" lon="0.501502">
        <ele>1936.8</ele>
        <time>2019-10-13T10:56:19Z</time>
      </trkpt>
      <trkpt lat="42.729368" lon="0.501542">
        <ele>1935.4</ele>
        <time>2019-10-13T10:56:28Z</time>
      </trkpt>
      <trkpt lat="42.729269" lon="0.501542">
        <ele>1935.2</ele>
        <time>2019-10-13T10:56:36Z</time>
      </trkpt>
      <trkpt lat="42.729181" lon="0.501587">
        <ele>1933.9</ele>
        <time>2019-10-13T10:56:44Z</time>
      </trkpt>
      <trkpt lat="42.729086" lon="0.501601">
        <ele>1932.4</ele>
        <time>2019-10-13T10:57:00Z</time>
      </trkpt>
      <trkpt lat="42.728996" lon="0.501620">
        <ele>1930.9</ele>
        <time>2019-10-13T10:57:14Z</time>
      </trkpt>
      <trkpt lat="42.728890" lon="0.501658">
        <ele>1927.6</ele>
        <time>2019-10-13T10:57:26Z</time>
      </trkpt>
      <trkpt lat="42.728795" lon="0.501701">
        <ele>1924.4</ele>
        <time>2019-10-13T10:57:37Z</time>
      </trkpt>
      <trkpt lat="42.728713" lon="0.501767">
        <ele>1923.3</ele>
        <time>2019-10-13T10:57:48Z</time>
      </trkpt>
      <trkpt lat="42.728621" lon="0.501817">
        <ele>1922.5</ele>
        <time>2019-10-13T10:57:57Z</time>
      </trkpt>
      <trkpt lat="42.728542" lon="0.501864">
        <ele>1922.9</ele>
        <time>2019-10-13T10:58:04Z</time>
      </trkpt>
      <trkpt lat="42.728450" lon="0.501912">
        <ele>1923.0</ele>
        <time>2019-10-13T10:58:11Z</time>
      </trkpt>
      <trkpt lat="42.728360" lon="0.501980">
        <ele>1923.2</ele>
        <time>2019-10-13T10:58:19Z</time>
      </trkpt>
      <trkpt lat="42.728284" lon="0.502037">
        <ele>1922.9</ele>
        <time>2019-10-13T10:58:26Z</time>
      </trkpt>
      <trkpt lat="42.728197" lon="0.502102">
        <ele>1923.2</ele>
        <time>2019-10-13T10:58:34Z</time>
      </trkpt>
      <trkpt lat="42.728108" lon="0.502136">
        <ele>1923.7</ele>
        <time>2019-10-13T10:58:42Z</time>
      </trkpt>
      <trkpt lat="42.728021" lon="0.502178">
        <ele>1924.8</ele>
        <time>2019-10-13T10:58:50Z</time>
      </trkpt>
      <trkpt lat="42.727924" lon="0.502220">
        <ele>1926.2</ele>
        <time>2019-10-13T10:58:58Z</time>
      </trkpt>
      <trkpt lat="42.727823" lon="0.502252">
        <ele>1927.8</ele>
        <time>2019-10-13T10:59:06Z</time>
      </trkpt>
      <trkpt lat="42.727737" lon="0.502317">
        <ele>1928.9</ele>
        <time>2019-10-13T10:59:15Z</time>
      </trkpt>
      <trkpt lat="42.727648" lon="0.502296">
        <ele>1930.2</ele>
        <time>2019-10-13T10:59:24Z</time>
      </trkpt>
      <trkpt lat="42.727550" lon="0.502295">
        <ele>1931.3</ele>
        <time>2019-10-13T10:59:33Z</time>
      </trkpt>
      <trkpt lat="42.727444" lon="0.502299">
        <ele>1931.5</ele>
        <time>2019-10-13T10:59:42Z</time>
      </trkpt>
      <trkpt lat="42.727360" lon="0.502346">
        <ele>1931.1</ele>
        <time>2019-10-13T10:59:52Z</time>
      </trkpt>
      <trkpt lat="42.727265" lon="0.502352">
        <ele>1929.1</ele>
        <time>2019-10-13T11:00:02Z</time>
      </trkpt>
      <trkpt lat="42.727172" lon="0.502380">
        <ele>1928.7</ele>
        <time>2019-10-13T11:00:12Z</time>
      </trkpt>
      <trkpt lat="42.727079" lon="0.502403">
        <ele>1929.3</ele>
        <time>2019-10-13T11:00:22Z</time>
      </trkpt>
      <trkpt lat="42.726981" lon="0.502430">
        <ele>1929.7</ele>
        <time>2019-10-13T11:00:33Z</time>
      </trkpt>
      <trkpt lat="42.726887" lon="0.502453">
        <ele>1928.9</ele>
        <time>2019-10-13T11:00:44Z</time>
      </trkpt>
      <trkpt lat="42.726790" lon="0.502500">
        <ele>1928.9</ele>
        <time>2019-10-13T11:00:55Z</time>
      </trkpt>
      <trkpt lat="42.726691" lon="0.502529">
        <ele>1929.2</ele>
        <time>2019-10-13T11:01:04Z</time>
      </trkpt>
      <trkpt lat="42.726625" lon="0.502625">
        <ele>1930.4</ele>
        <time>2019-10-13T11:01:12Z</time>
      </trkpt>
      <trkpt lat="42.726552" lon="0.502695">
        <ele>1931.9</ele>
        <time>2019-10-13T11:01:20Z</time>
      </trkpt>
      <trkpt lat="42.726462" lon="0.502751">
        <ele>1930.7</ele>
        <time>2019-10-13T11:01:28Z</time>
      </trkpt>
      <trkpt lat="42.726379" lon="0.502809">
        <ele>1930.7</ele>
        <time>2019-10-13T11:01:37Z</time>
      </trkpt>
      <trkpt lat="42.726289" lon="0.502836">
        <ele>1929.2</ele>
        <time>2019-10-13T11:01:47Z</time>
      </trkpt>
      <trkpt lat="42.726200" lon="0.502885">
        <ele>1928.5</ele>
        <time>2019-10-13T11:01:55Z</time>
      </trkpt>
      <trkpt lat="42.726105" lon="0.502932">
        <ele>1927.9</ele>
        <time>2019-10-13T11:02:04Z</time>
      </trkpt>
      <trkpt lat="42.726017" lon="0.502965">
        <ele>1928.5</ele>
        <time>2019-10-13T11:02:14Z</time>
      </trkpt>
      <trkpt lat="42.725927" lon="0.503006">
        <ele>1928.0</ele>
        <time>2019-10-13T11:02:27Z</time>
      </trkpt>
      <trkpt lat="42.725831" lon="0.502977">
        <ele>1926.2</ele>
        <time>2019-10-13T11:02:36Z</time>
      </trkpt>
      <trkpt lat="42.725736" lon="0.502902">
        <ele>1926.3</ele>
        <time>2019-10-13T11:02:45Z</time>
      </trkpt>
      <trkpt lat="42.725640" lon="0.502830">
        <ele>1926.4</ele>
        <time>2019-10-13T11:02:54Z</time>
      </trkpt>
      <trkpt lat="42.725545" lon="0.502785">
        <ele>1927.0</ele>
        <time>2019-10-13T11:03:03Z</time>
      </trkpt>
      <trkpt lat="42.725457" lon="0.502826">
        <ele>1927.8</ele>
        <time>2019-10-13T11:03:13Z</time>
      </trkpt>
      <trkpt lat="42.725383" lon="0.502894">
        <ele>1928.6</ele>
        <time>2019-10-13T11:03:21Z</time>
      </trkpt>
      <trkpt lat="42.725304" lon="0.502959">
        <ele>1929.9</ele>
        <time>2019-10-13T11:03:30Z</time>
      </trkpt>
      <trkpt lat="42.725214" lon="0.502949">
        <ele>1930.7</ele>
        <time>2019-10-13T11:03:40Z</time>
      </trkpt>
      <trkpt lat="42.725128" lon="0.502890">
        <ele>1930.2</ele>
        <time>2019-10-13T11:03:48Z</time>
      </trkpt>
      <trkpt lat="42.725048" lon="0.502816">
        <ele>1930.2</ele>
        <time>2019-10-13T11:03:56Z</time>
      </trkpt>
      <trkpt lat="42.724974" lon="0.502709">
        <ele>1930.2</ele>
        <time>2019-10-13T11:04:03Z</time>
      </trkpt>
      <trkpt lat="42.724933" lon="0.502582">
        <ele>1931.3</ele>
        <time>2019-10-13T11:04:11Z</time>
      </trkpt>
      <trkpt lat="42.724904" lon="0.502459">
        <ele>1931.6</ele>
        <time>2019-10-13T11:04:19Z</time>
      </trkpt>
      <trkpt lat="42.724880" lon="0.502332">
        <ele>1931.8</ele>
        <time>2019-10-13T11:04:27Z</time>
      </trkpt>
      <trkpt lat="42.724868" lon="0.502202">
        <ele>1930.8</ele>
        <time>2019-10-13T11:04:35Z</time>
      </trkpt>
      <trkpt lat="42.724853" lon="0.502066">
        <ele>1929.8</ele>
        <time>2019-10-13T11:04:43Z</time>
      </trkpt>
      <trkpt lat="42.724837" lon="0.501923">
        <ele>1929.9</ele>
        <time>2019-10-13T11:04:51Z</time>
      </trkpt>
      <trkpt lat="42.724842" lon="0.501796">
        <ele>1930.0</ele>
        <time>2019-10-13T11:04:58Z</time>
      </trkpt>
      <trkpt lat="42.724862" lon="0.501671">
        <ele>1929.4</ele>
        <time>2019-10-13T11:05:05Z</time>
      </trkpt>
      <trkpt lat="42.724898" lon="0.501533">
        <ele>1929.3</ele>
        <time>2019-10-13T11:05:13Z</time>
      </trkpt>
      <trkpt lat="42.724938" lon="0.501413">
        <ele>1929.4</ele>
        <time>2019-10-13T11:05:21Z</time>
      </trkpt>
      <trkpt lat="42.724946" lon="0.501277">
        <ele>1929.3</ele>
        <time>2019-10-13T11:05:29Z</time>
      </trkpt>
      <trkpt lat="42.724952" lon="0.501149">
        <ele>1929.6</ele>
        <time>2019-10-13T11:05:37Z</time>
      </trkpt>
      <trkpt lat="42.724940" lon="0.501017">
        <ele>1930.2</ele>
        <time>2019-10-13T11:05:44Z</time>
      </trkpt>
      <trkpt lat="42.724906" lon="0.500876">
        <ele>1929.4</ele>
        <time>2019-10-13T11:05:52Z</time>
      </trkpt>
      <trkpt lat="42.724867" lon="0.500745">
        <ele>1929.4</ele>
        <time>2019-10-13T11:06:00Z</time>
      </trkpt>
      <trkpt lat="42.724844" lon="0.500609">
        <ele>1930.2</ele>
        <time>2019-10-13T11:06:08Z</time>
      </trkpt>
      <trkpt lat="42.724777" lon="0.500502">
        <ele>1930.1</ele>
        <time>2019-10-13T11:06:17Z</time>
      </trkpt>
      <trkpt lat="42.724664" lon="0.500474">
        <ele>1929.6</ele>
        <time>2019-10-13T11:06:26Z</time>
      </trkpt>
      <trkpt lat="42.724552" lon="0.500449">
        <ele>1929.3</ele>
        <time>2019-10-13T11:06:35Z</time>
      </trkpt>
      <trkpt lat="42.724448" lon="0.500442">
        <ele>1928.7</ele>
        <time>2019-10-13T11:06:44Z</time>
      </trkpt>
      <trkpt lat="42.724341" lon="0.500431">
        <ele>1928.2</ele>
        <time>2019-10-13T11:06:52Z</time>
      </trkpt>
      <trkpt lat="42.724236" lon="0.500408">
        <ele>1927.8</ele>
        <time>2019-10-13T11:07:01Z</time>
      </trkpt>
      <trkpt lat="42.724133" lon="0.500387">
        <ele>1929.1</ele>
        <time>2019-10-13T11:07:12Z</time>
      </trkpt>
      <trkpt lat="42.724034" lon="0.500394">
        <ele>1930.4</ele>
        <time>2019-10-13T11:07:21Z</time>
      </trkpt>
      <trkpt lat="42.723933" lon="0.500424">
        <ele>1931.4</ele>
        <time>2019-10-13T11:07:30Z</time>
      </trkpt>
      <trkpt lat="42.723837" lon="0.500450">
        <ele>1932.1</ele>
        <time>2019-10-13T11:07:39Z</time>
      </trkpt>
      <trkpt lat="42.723740" lon="0.500460">
        <ele>1933.3</ele>
        <time>2019-10-13T11:07:48Z</time>
      </trkpt>
      <trkpt lat="42.723635" lon="0.500445">
        <ele>1934.3</ele>
        <time>2019-10-13T11:07:56Z</time>
      </trkpt>
      <trkpt lat="42.723522" lon="0.500411">
        <ele>1936.5</ele>
        <time>2019-10-13T11:08:05Z</time>
      </trkpt>
      <trkpt lat="42.723420" lon="0.500378">
        <ele>1939.8</ele>
        <time>2019-10-13T11:08:15Z</time>
      </trkpt>
      <trkpt lat="42.723306" lon="0.500344">
        <ele>1943.2</ele>
        <time>2019-10-13T11:08:27Z</time>
      </trkpt>
      <trkpt lat="42.723239" lon="0.500239">
        <ele>1946.5</ele>
        <time>2019-10-13T11:08:38Z</time>
      </trkpt>
      <trkpt lat="42.723139" lon="0.500215">
        <ele>1945.8</ele>
        <time>2019-10-13T11:08:46Z</time>
      </trkpt>
      <trkpt lat="42.723062" lon="0.500137">
        <ele>1942.5</ele>
        <time>2019-10-13T11:08:54Z</time>
      </trkpt>
      <trkpt lat="42.722975" lon="0.500072">
        <ele>1940.7</ele>
        <time>2019-10-13T11:09:03Z</time>
      </trkpt>
      <trkpt lat="42.722867" lon="0.500076">
        <ele>1939.1</ele>
        <time>2019-10-13T11:09:12Z</time>
      </trkpt>
      <trkpt lat="42.722754" lon="0.500070">
        <ele>1938.1</ele>
        <time>2019-10-13T11:09:21Z</time>
      </trkpt>
      <trkpt lat="42.722643" lon="0.500092">
        <ele>1937.3</ele>
        <time>2019-10-13T11:09:29Z</time>
      </trkpt>
      <trkpt lat="42.722528" lon="0.500062">
        <ele>1936.3</ele>
        <time>2019-10-13T11:09:41Z</time>
      </trkpt>
      <trkpt lat="42.722423" lon="0.499999">
        <ele>1934.8</ele>
        <time>2019-10-13T11:09:50Z</time>
      </trkpt>
      <trkpt lat="42.722301" lon="0.499991">
        <ele>1932.5</ele>
        <time>2019-10-13T11:09:59Z</time>
      </trkpt>
      <trkpt lat="42.722186" lon="0.499982">
        <ele>1932.8</ele>
        <time>2019-10-13T11:10:09Z</time>
      </trkpt>
      <trkpt lat="42.722080" lon="0.499990">
        <ele>1934.5</ele>
        <time>2019-10-13T11:10:18Z</time>
      </trkpt>
      <trkpt lat="42.721985" lon="0.500028">
        <ele>1933.6</ele>
        <time>2019-10-13T11:10:26Z</time>
      </trkpt>
      <trkpt lat="42.721876" lon="0.499993">
        <ele>1934.2</ele>
        <time>2019-10-13T11:10:34Z</time>
      </trkpt>
      <trkpt lat="42.721771" lon="0.500013">
        <ele>1935.7</ele>
        <time>2019-10-13T11:10:43Z</time>
      </trkpt>
      <trkpt lat="42.721675" lon="0.500010">
        <ele>1937.6</ele>
        <time>2019-10-13T11:10:52Z</time>
      </trkpt>
      <trkpt lat="42.721570" lon="0.499990">
        <ele>1938.8</ele>
        <time>2019-10-13T11:11:01Z</time>
      </trkpt>
      <trkpt lat="42.721477" lon="0.500005">
        <ele>1936.4</ele>
        <time>2019-10-13T11:11:20Z</time>
      </trkpt>
      <trkpt lat="42.721386" lon="0.499941">
        <ele>1937.1</ele>
        <time>2019-10-13T11:11:30Z</time>
      </trkpt>
      <trkpt lat="42.721292" lon="0.499993">
        <ele>1938.3</ele>
        <time>2019-10-13T11:11:46Z</time>
      </trkpt>
      <trkpt lat="42.721198" lon="0.499978">
        <ele>1937.0</ele>
        <time>2019-10-13T11:12:04Z</time>
      </trkpt>
      <trkpt lat="42.721111" lon="0.499909">
        <ele>1937.2</ele>
        <time>2019-10-13T11:12:14Z</time>
      </trkpt>
      <trkpt lat="42.721020" lon="0.499921">
        <ele>1938.5</ele>
        <time>2019-10-13T11:12:22Z</time>
      </trkpt>
      <trkpt lat="42.720928" lon="0.499958">
        <ele>1941.1</ele>
        <time>2019-10-13T11:12:32Z</time>
      </trkpt>
      <trkpt lat="42.720835" lon="0.499927">
        <ele>1942.7</ele>
        <time>2019-10-13T11:12:42Z</time>
      </trkpt>
      <trkpt lat="42.720737" lon="0.499904">
        <ele>1944.3</ele>
        <time>2019-10-13T11:12:51Z</time>
      </trkpt>
      <trkpt lat="42.720644" lon="0.499897">
        <ele>1944.8</ele>
        <time>2019-10-13T11:13:07Z</time>
      </trkpt>
      <trkpt lat="42.720616" lon="0.499925">
        <ele>1948.4</ele>
        <time>2019-10-13T11:16:22Z</time>
      </trkpt>
      <trkpt lat="42.720510" lon="0.499941">
        <ele>1950.1</ele>
        <time>2019-10-13T11:16:32Z</time>
      </trkpt>
      <trkpt lat="42.720415" lon="0.499891">
        <ele>1951.9</ele>
        <time>2019-10-13T11:16:42Z</time>
      </trkpt>
      <trkpt lat="42.720317" lon="0.499846">
        <ele>1954.1</ele>
        <time>2019-10-13T11:16:52Z</time>
      </trkpt>
      <trkpt lat="42.720219" lon="0.499861">
        <ele>1955.1</ele>
        <time>2019-10-13T11:17:01Z</time>
      </trkpt>
      <trkpt lat="42.720116" lon="0.499820">
        <ele>1955.9</ele>
        <time>2019-10-13T11:17:12Z</time>
      </trkpt>
      <trkpt lat="42.720040" lon="0.499819">
        <ele>1957.9</ele>
        <time>2019-10-13T11:17:23Z</time>
      </trkpt>
      <trkpt lat="42.719955" lon="0.499838">
        <ele>1961.1</ele>
        <time>2019-10-13T11:17:33Z</time>
      </trkpt>
      <trkpt lat="42.719941" lon="0.499740">
        <ele>1962.5</ele>
        <time>2019-10-13T11:17:43Z</time>
      </trkpt>
      <trkpt lat="42.719843" lon="0.499731">
        <ele>1965.4</ele>
        <time>2019-10-13T11:17:55Z</time>
      </trkpt>
      <trkpt lat="42.719748" lon="0.499685">
        <ele>1968.3</ele>
        <time>2019-10-13T11:18:05Z</time>
      </trkpt>
      <trkpt lat="42.719645" lon="0.499662">
        <ele>1972.7</ele>
        <time>2019-10-13T11:18:18Z</time>
      </trkpt>
      <trkpt lat="42.719568" lon="0.499592">
        <ele>1975.4</ele>
        <time>2019-10-13T11:18:28Z</time>
      </trkpt>
      <trkpt lat="42.719505" lon="0.499496">
        <ele>1976.5</ele>
        <time>2019-10-13T11:18:39Z</time>
      </trkpt>
      <trkpt lat="42.719423" lon="0.499521">
        <ele>1978.1</ele>
        <time>2019-10-13T11:18:48Z</time>
      </trkpt>
      <trkpt lat="42.719347" lon="0.499606">
        <ele>1979.7</ele>
        <time>2019-10-13T11:18:57Z</time>
      </trkpt>
      <trkpt lat="42.719265" lon="0.499639">
        <ele>1981.0</ele>
        <time>2019-10-13T11:19:08Z</time>
      </trkpt>
      <trkpt lat="42.719268" lon="0.499509">
        <ele>1983.5</ele>
        <time>2019-10-13T11:19:18Z</time>
      </trkpt>
      <trkpt lat="42.719236" lon="0.499455">
        <ele>1985.8</ele>
        <time>2019-10-13T11:19:28Z</time>
      </trkpt>
      <trkpt lat="42.719150" lon="0.499523">
        <ele>1988.3</ele>
        <time>2019-10-13T11:19:39Z</time>
      </trkpt>
      <trkpt lat="42.719073" lon="0.499496">
        <ele>1990.2</ele>
        <time>2019-10-13T11:19:49Z</time>
      </trkpt>
      <trkpt lat="42.719011" lon="0.499386">
        <ele>1992.8</ele>
        <time>2019-10-13T11:19:59Z</time>
      </trkpt>
      <trkpt lat="42.718922" lon="0.499442">
        <ele>1996.0</ele>
        <time>2019-10-13T11:20:09Z</time>
      </trkpt>
      <trkpt lat="42.718869" lon="0.499379">
        <ele>1998.7</ele>
        <time>2019-10-13T11:20:19Z</time>
      </trkpt>
      <trkpt lat="42.718780" lon="0.499402">
        <ele>2000.6</ele>
        <time>2019-10-13T11:20:29Z</time>
      </trkpt>
      <trkpt lat="42.718697" lon="0.499320">
        <ele>2003.3</ele>
        <time>2019-10-13T11:20:38Z</time>
      </trkpt>
      <trkpt lat="42.718613" lon="0.499242">
        <ele>2007.0</ele>
        <time>2019-10-13T11:20:50Z</time>
      </trkpt>
      <trkpt lat="42.718526" lon="0.499187">
        <ele>2008.4</ele>
        <time>2019-10-13T11:21:00Z</time>
      </trkpt>
      <trkpt lat="42.718420" lon="0.499166">
        <ele>2010.6</ele>
        <time>2019-10-13T11:21:12Z</time>
      </trkpt>
      <trkpt lat="42.718383" lon="0.499059">
        <ele>2013.4</ele>
        <time>2019-10-13T11:21:23Z</time>
      </trkpt>
      <trkpt lat="42.718333" lon="0.498998">
        <ele>2015.3</ele>
        <time>2019-10-13T11:21:32Z</time>
      </trkpt>
      <trkpt lat="42.718241" lon="0.498990">
        <ele>2018.3</ele>
        <time>2019-10-13T11:21:41Z</time>
      </trkpt>
      <trkpt lat="42.718196" lon="0.498864">
        <ele>2020.9</ele>
        <time>2019-10-13T11:21:51Z</time>
      </trkpt>
      <trkpt lat="42.718098" lon="0.498889">
        <ele>2023.7</ele>
        <time>2019-10-13T11:22:01Z</time>
      </trkpt>
      <trkpt lat="42.718000" lon="0.498907">
        <ele>2026.3</ele>
        <time>2019-10-13T11:22:11Z</time>
      </trkpt>
      <trkpt lat="42.717950" lon="0.498840">
        <ele>2028.2</ele>
        <time>2019-10-13T11:22:21Z</time>
      </trkpt>
      <trkpt lat="42.717884" lon="0.498802">
        <ele>2030.3</ele>
        <time>2019-10-13T11:22:30Z</time>
      </trkpt>
      <trkpt lat="42.717811" lon="0.498751">
        <ele>2032.9</ele>
        <time>2019-10-13T11:22:40Z</time>
      </trkpt>
      <trkpt lat="42.717745" lon="0.498688">
        <ele>2035.5</ele>
        <time>2019-10-13T11:22:50Z</time>
      </trkpt>
      <trkpt lat="42.717653" lon="0.498699">
        <ele>2039.1</ele>
        <time>2019-10-13T11:23:32Z</time>
      </trkpt>
      <trkpt lat="42.717558" lon="0.498651">
        <ele>2042.7</ele>
        <time>2019-10-13T11:23:43Z</time>
      </trkpt>
      <trkpt lat="42.717492" lon="0.498552">
        <ele>2046.3</ele>
        <time>2019-10-13T11:23:53Z</time>
      </trkpt>
      <trkpt lat="42.717445" lon="0.498430">
        <ele>2050.4</ele>
        <time>2019-10-13T11:24:04Z</time>
      </trkpt>
      <trkpt lat="42.717442" lon="0.498310">
        <ele>2053.0</ele>
        <time>2019-10-13T11:24:13Z</time>
      </trkpt>
      <trkpt lat="42.717398" lon="0.498198">
        <ele>2057.0</ele>
        <time>2019-10-13T11:24:24Z</time>
      </trkpt>
      <trkpt lat="42.717349" lon="0.498090">
        <ele>2060.6</ele>
        <time>2019-10-13T11:24:36Z</time>
      </trkpt>
      <trkpt lat="42.717269" lon="0.498046">
        <ele>2063.0</ele>
        <time>2019-10-13T11:24:47Z</time>
      </trkpt>
      <trkpt lat="42.717296" lon="0.497933">
        <ele>2065.3</ele>
        <time>2019-10-13T11:24:57Z</time>
      </trkpt>
      <trkpt lat="42.717235" lon="0.497901">
        <ele>2067.4</ele>
        <time>2019-10-13T11:25:06Z</time>
      </trkpt>
      <trkpt lat="42.717143" lon="0.497889">
        <ele>2068.7</ele>
        <time>2019-10-13T11:25:14Z</time>
      </trkpt>
      <trkpt lat="42.717055" lon="0.497851">
        <ele>2069.3</ele>
        <time>2019-10-13T11:25:23Z</time>
      </trkpt>
      <trkpt lat="42.716944" lon="0.497860">
        <ele>2075.9</ele>
        <time>2019-10-13T11:26:24Z</time>
      </trkpt>
      <trkpt lat="42.716857" lon="0.497862">
        <ele>2079.3</ele>
        <time>2019-10-13T11:26:33Z</time>
      </trkpt>
      <trkpt lat="42.716764" lon="0.497896">
        <ele>2080.2</ele>
        <time>2019-10-13T11:26:41Z</time>
      </trkpt>
      <trkpt lat="42.716651" lon="0.497834">
        <ele>2084.1</ele>
        <time>2019-10-13T11:27:22Z</time>
      </trkpt>
      <trkpt lat="42.716555" lon="0.497826">
        <ele>2085.5</ele>
        <time>2019-10-13T11:27:33Z</time>
      </trkpt>
      <trkpt lat="42.716455" lon="0.497820">
        <ele>2087.7</ele>
        <time>2019-10-13T11:27:42Z</time>
      </trkpt>
      <trkpt lat="42.716356" lon="0.497800">
        <ele>2091.2</ele>
        <time>2019-10-13T11:27:53Z</time>
      </trkpt>
      <trkpt lat="42.716278" lon="0.497731">
        <ele>2093.4</ele>
        <time>2019-10-13T11:28:02Z</time>
      </trkpt>
      <trkpt lat="42.716190" lon="0.497698">
        <ele>2094.5</ele>
        <time>2019-10-13T11:28:10Z</time>
      </trkpt>
      <trkpt lat="42.716108" lon="0.497674">
        <ele>2095.8</ele>
        <time>2019-10-13T11:29:03Z</time>
      </trkpt>
      <trkpt lat="42.716061" lon="0.497584">
        <ele>2099.3</ele>
        <time>2019-10-13T11:29:29Z</time>
      </trkpt>
      <trkpt lat="42.716014" lon="0.497469">
        <ele>2103.2</ele>
        <time>2019-10-13T11:29:40Z</time>
      </trkpt>
      <trkpt lat="42.716011" lon="0.497340">
        <ele>2106.3</ele>
        <time>2019-10-13T11:29:49Z</time>
      </trkpt>
      <trkpt lat="42.716003" lon="0.497213">
        <ele>2110.1</ele>
        <time>2019-10-13T11:30:01Z</time>
      </trkpt>
      <trkpt lat="42.716026" lon="0.497108">
        <ele>2114.0</ele>
        <time>2019-10-13T11:30:11Z</time>
      </trkpt>
      <trkpt lat="42.716022" lon="0.496993">
        <ele>2117.8</ele>
        <time>2019-10-13T11:30:20Z</time>
      </trkpt>
      <trkpt lat="42.715990" lon="0.496872">
        <ele>2120.7</ele>
        <time>2019-10-13T11:30:29Z</time>
      </trkpt>
      <trkpt lat="42.715963" lon="0.496774">
        <ele>2123.0</ele>
        <time>2019-10-13T11:30:37Z</time>
      </trkpt>
      <trkpt lat="42.716027" lon="0.496701">
        <ele>2126.7</ele>
        <time>2019-10-13T11:30:52Z</time>
      </trkpt>
      <trkpt lat="42.716021" lon="0.496593">
        <ele>2131.3</ele>
        <time>2019-10-13T11:31:08Z</time>
      </trkpt>
      <trkpt lat="42.716026" lon="0.496475">
        <ele>2133.7</ele>
        <time>2019-10-13T11:31:20Z</time>
      </trkpt>
      <trkpt lat="42.716031" lon="0.496391">
        <ele>2139.3</ele>
        <time>2019-10-13T11:31:35Z</time>
      </trkpt>
      <trkpt lat="42.715991" lon="0.496289">
        <ele>2142.5</ele>
        <time>2019-10-13T11:31:49Z</time>
      </trkpt>
      <trkpt lat="42.716023" lon="0.496180">
        <ele>2147.6</ele>
        <time>2019-10-13T11:32:04Z</time>
      </trkpt>
      <trkpt lat="42.716062" lon="0.496079">
        <ele>2151.6</ele>
        <time>2019-10-13T11:32:15Z</time>
      </trkpt>
      <trkpt lat="42.716092" lon="0.495960">
        <ele>2155.9</ele>
        <time>2019-10-13T11:32:26Z</time>
      </trkpt>
      <trkpt lat="42.716059" lon="0.495862">
        <ele>2159.6</ele>
        <time>2019-10-13T11:32:41Z</time>
      </trkpt>
      <trkpt lat="42.715981" lon="0.495767">
        <ele>2164.8</ele>
        <time>2019-10-13T11:32:56Z</time>
      </trkpt>
      <trkpt lat="42.715899" lon="0.495694">
        <ele>2167.0</ele>
        <time>2019-10-13T11:33:09Z</time>
      </trkpt>
      <trkpt lat="42.715829" lon="0.495677">
        <ele>2171.7</ele>
        <time>2019-10-13T11:33:55Z</time>
      </trkpt>
      <trkpt lat="42.715740" lon="0.495643">
        <ele>2172.9</ele>
        <time>2019-10-13T11:34:13Z</time>
      </trkpt>
      <trkpt lat="42.715655" lon="0.495653">
        <ele>2178.4</ele>
        <time>2019-10-13T11:36:31Z</time>
      </trkpt>
      <trkpt lat="42.715577" lon="0.495594">
        <ele>2182.0</ele>
        <time>2019-10-13T11:36:49Z</time>
      </trkpt>
      <trkpt lat="42.715557" lon="0.495490">
        <ele>2186.3</ele>
        <time>2019-10-13T11:37:06Z</time>
      </trkpt>
      <trkpt lat="42.715529" lon="0.495386">
        <ele>2192.8</ele>
        <time>2019-10-13T11:37:30Z</time>
      </trkpt>
      <trkpt lat="42.715524" lon="0.495309">
        <ele>2198.2</ele>
        <time>2019-10-13T11:37:49Z</time>
      </trkpt>
      <trkpt lat="42.715586" lon="0.495265">
        <ele>2201.2</ele>
        <time>2019-10-13T11:38:04Z</time>
      </trkpt>
      <trkpt lat="42.715558" lon="0.495191">
        <ele>2206.1</ele>
        <time>2019-10-13T11:38:21Z</time>
      </trkpt>
      <trkpt lat="42.715509" lon="0.495096">
        <ele>2210.3</ele>
        <time>2019-10-13T11:38:34Z</time>
      </trkpt>
      <trkpt lat="42.715497" lon="0.494982">
        <ele>2214.6</ele>
        <time>2019-10-13T11:38:49Z</time>
      </trkpt>
      <trkpt lat="42.715478" lon="0.494866">
        <ele>2219.5</ele>
        <time>2019-10-13T11:39:07Z</time>
      </trkpt>
      <trkpt lat="42.715419" lon="0.494795">
        <ele>2222.5</ele>
        <time>2019-10-13T11:39:19Z</time>
      </trkpt>
      <trkpt lat="42.715373" lon="0.494689">
        <ele>2228.1</ele>
        <time>2019-10-13T11:39:39Z</time>
      </trkpt>
      <trkpt lat="42.715309" lon="0.494679">
        <ele>2232.5</ele>
        <time>2019-10-13T11:39:55Z</time>
      </trkpt>
      <trkpt lat="42.715232" lon="0.494645">
        <ele>2237.0</ele>
        <time>2019-10-13T11:40:33Z</time>
      </trkpt>
      <trkpt lat="42.715251" lon="0.494557">
        <ele>2239.9</ele>
        <time>2019-10-13T11:40:49Z</time>
      </trkpt>
      <trkpt lat="42.715281" lon="0.494463">
        <ele>2244.0</ele>
        <time>2019-10-13T11:41:09Z</time>
      </trkpt>
      <trkpt lat="42.715344" lon="0.494400">
        <ele>2247.2</ele>
        <time>2019-10-13T11:41:33Z</time>
      </trkpt>
      <trkpt lat="42.715431" lon="0.494381">
        <ele>2250.1</ele>
        <time>2019-10-13T11:41:51Z</time>
      </trkpt>
      <trkpt lat="42.715430" lon="0.494281">
        <ele>2253.7</ele>
        <time>2019-10-13T11:42:07Z</time>
      </trkpt>
      <trkpt lat="42.715479" lon="0.494204">
        <ele>2255.9</ele>
        <time>2019-10-13T11:42:39Z</time>
      </trkpt>
      <trkpt lat="42.715547" lon="0.494118">
        <ele>2259.1</ele>
        <time>2019-10-13T11:42:51Z</time>
      </trkpt>
      <trkpt lat="42.715634" lon="0.494068">
        <ele>2262.1</ele>
        <time>2019-10-13T11:43:05Z</time>
      </trkpt>
      <trkpt lat="42.715719" lon="0.494016">
        <ele>2266.4</ele>
        <time>2019-10-13T11:43:21Z</time>
      </trkpt>
      <trkpt lat="42.715764" lon="0.493943">
        <ele>2271.6</ele>
        <time>2019-10-13T11:43:39Z</time>
      </trkpt>
      <trkpt lat="42.715767" lon="0.493828">
        <ele>2274.7</ele>
        <time>2019-10-13T11:43:55Z</time>
      </trkpt>
      <trkpt lat="42.715819" lon="0.493755">
        <ele>2275.0</ele>
        <time>2019-10-13T11:48:44Z</time>
      </trkpt>
      <trkpt lat="42.715858" lon="0.493689">
        <ele>2281.4</ele>
        <time>2019-10-13T11:49:35Z</time>
      </trkpt>
      <trkpt lat="42.715875" lon="0.493600">
        <ele>2284.2</ele>
        <time>2019-10-13T11:49:47Z</time>
      </trkpt>
      <trkpt lat="42.715844" lon="0.493539">
        <ele>2289.0</ele>
        <time>2019-10-13T11:50:06Z</time>
      </trkpt>
      <trkpt lat="42.715807" lon="0.493455">
        <ele>2292.9</ele>
        <time>2019-10-13T11:50:23Z</time>
      </trkpt>
      <trkpt lat="42.715713" lon="0.493428">
        <ele>2295.8</ele>
        <time>2019-10-13T11:50:35Z</time>
      </trkpt>
      <trkpt lat="42.715635" lon="0.493380">
        <ele>2298.9</ele>
        <time>2019-10-13T11:50:51Z</time>
      </trkpt>
      <trkpt lat="42.715550" lon="0.493374">
        <ele>2303.5</ele>
        <time>2019-10-13T11:51:10Z</time>
      </trkpt>
      <trkpt lat="42.715487" lon="0.493285">
        <ele>2308.6</ele>
        <time>2019-10-13T11:51:46Z</time>
      </trkpt>
      <trkpt lat="42.715404" lon="0.493339">
        <ele>2312.1</ele>
        <time>2019-10-13T11:51:58Z</time>
      </trkpt>
      <trkpt lat="42.715301" lon="0.493346">
        <ele>2318.3</ele>
        <time>2019-10-13T11:52:11Z</time>
      </trkpt>
      <trkpt lat="42.715208" lon="0.493350">
        <ele>2321.4</ele>
        <time>2019-10-13T11:52:25Z</time>
      </trkpt>
      <trkpt lat="42.715122" lon="0.493369">
        <ele>2322.9</ele>
        <time>2019-10-13T11:52:41Z</time>
      </trkpt>
      <trkpt lat="42.715040" lon="0.493310">
        <ele>2325.3</ele>
        <time>2019-10-13T11:52:58Z</time>
      </trkpt>
      <trkpt lat="42.714966" lon="0.493273">
        <ele>2324.3</ele>
        <time>2019-10-13T11:53:24Z</time>
      </trkpt>
      <trkpt lat="42.714873" lon="0.493228">
        <ele>2328.1</ele>
        <time>2019-10-13T11:54:01Z</time>
      </trkpt>
      <trkpt lat="42.714812" lon="0.493145">
        <ele>2329.7</ele>
        <time>2019-10-13T11:54:18Z</time>
      </trkpt>
      <trkpt lat="42.714719" lon="0.493192">
        <ele>2330.0</ele>
        <time>2019-10-13T11:54:39Z</time>
      </trkpt>
      <trkpt lat="42.714623" lon="0.493221">
        <ele>2331.6</ele>
        <time>2019-10-13T11:54:59Z</time>
      </trkpt>
      <trkpt lat="42.714535" lon="0.493213">
        <ele>2331.1</ele>
        <time>2019-10-13T11:55:13Z</time>
      </trkpt>
      <trkpt lat="42.714428" lon="0.493256">
        <ele>2332.1</ele>
        <time>2019-10-13T11:55:49Z</time>
      </trkpt>
      <trkpt lat="42.714338" lon="0.493269">
        <ele>2329.1</ele>
        <time>2019-10-13T11:56:16Z</time>
      </trkpt>
      <trkpt lat="42.714255" lon="0.493249">
        <ele>2332.9</ele>
        <time>2019-10-13T11:56:51Z</time>
      </trkpt>
      <trkpt lat="42.714151" lon="0.493260">
        <ele>2336.5</ele>
        <time>2019-10-13T11:57:11Z</time>
      </trkpt>
      <trkpt lat="42.714055" lon="0.493236">
        <ele>2342.7</ele>
        <time>2019-10-13T11:57:29Z</time>
      </trkpt>
      <trkpt lat="42.714039" lon="0.493235">
        <ele>2342.9</ele>
        <time>2019-10-13T11:58:55Z</time>
      </trkpt>
      <trkpt lat="42.713955" lon="0.493195">
        <ele>2345.6</ele>
        <time>2019-10-13T11:59:16Z</time>
      </trkpt>
      <trkpt lat="42.713896" lon="0.493103">
        <ele>2353.6</ele>
        <time>2019-10-13T11:59:39Z</time>
      </trkpt>
      <trkpt lat="42.713807" lon="0.493095">
        <ele>2355.2</ele>
        <time>2019-10-13T11:59:57Z</time>
      </trkpt>
      <trkpt lat="42.713743" lon="0.493024">
        <ele>2357.9</ele>
        <time>2019-10-13T12:00:11Z</time>
      </trkpt>
      <trkpt lat="42.713644" lon="0.493000">
        <ele>2360.7</ele>
        <time>2019-10-13T12:00:27Z</time>
      </trkpt>
      <trkpt lat="42.713554" lon="0.492967">
        <ele>2363.9</ele>
        <time>2019-10-13T12:00:43Z</time>
      </trkpt>
      <trkpt lat="42.713461" lon="0.492920">
        <ele>2367.1</ele>
        <time>2019-10-13T12:01:03Z</time>
      </trkpt>
      <trkpt lat="42.713454" lon="0.492825">
        <ele>2372.7</ele>
        <time>2019-10-13T12:01:34Z</time>
      </trkpt>
      <trkpt lat="42.713369" lon="0.492816">
        <ele>2377.7</ele>
        <time>2019-10-13T12:02:29Z</time>
      </trkpt>
      <trkpt lat="42.713287" lon="0.492804">
        <ele>2380.2</ele>
        <time>2019-10-13T12:02:44Z</time>
      </trkpt>
      <trkpt lat="42.713199" lon="0.492771">
        <ele>2382.0</ele>
        <time>2019-10-13T12:02:58Z</time>
      </trkpt>
      <trkpt lat="42.713106" lon="0.492755">
        <ele>2384.4</ele>
        <time>2019-10-13T12:03:11Z</time>
      </trkpt>
      <trkpt lat="42.713003" lon="0.492771">
        <ele>2387.0</ele>
        <time>2019-10-13T12:03:23Z</time>
      </trkpt>
      <trkpt lat="42.712907" lon="0.492763">
        <ele>2389.6</ele>
        <time>2019-10-13T12:03:36Z</time>
      </trkpt>
      <trkpt lat="42.712842" lon="0.492690">
        <ele>2391.8</ele>
        <time>2019-10-13T12:03:49Z</time>
      </trkpt>
      <trkpt lat="42.712765" lon="0.492631">
        <ele>2393.5</ele>
        <time>2019-10-13T12:04:04Z</time>
      </trkpt>
      <trkpt lat="42.712664" lon="0.492610">
        <ele>2396.5</ele>
        <time>2019-10-13T12:04:19Z</time>
      </trkpt>
      <trkpt lat="42.712573" lon="0.492596">
        <ele>2401.5</ele>
        <time>2019-10-13T12:04:35Z</time>
      </trkpt>
      <trkpt lat="42.712506" lon="0.492564">
        <ele>2408.9</ele>
        <time>2019-10-13T12:06:49Z</time>
      </trkpt>
      <trkpt lat="42.712463" lon="0.492509">
        <ele>2410.5</ele>
        <time>2019-10-13T12:07:05Z</time>
      </trkpt>
      <trkpt lat="42.712429" lon="0.492435">
        <ele>2416.6</ele>
        <time>2019-10-13T12:07:23Z</time>
      </trkpt>
      <trkpt lat="42.712343" lon="0.492381">
        <ele>2422.2</ele>
        <time>2019-10-13T12:07:40Z</time>
      </trkpt>
      <trkpt lat="42.712273" lon="0.492316">
        <ele>2423.6</ele>
        <time>2019-10-13T12:07:58Z</time>
      </trkpt>
      <trkpt lat="42.712192" lon="0.492324">
        <ele>2426.0</ele>
        <time>2019-10-13T12:08:15Z</time>
      </trkpt>
      <trkpt lat="42.712094" lon="0.492317">
        <ele>2426.4</ele>
        <time>2019-10-13T12:08:43Z</time>
      </trkpt>
      <trkpt lat="42.712007" lon="0.492302">
        <ele>2429.3</ele>
        <time>2019-10-13T12:09:01Z</time>
      </trkpt>
      <trkpt lat="42.711941" lon="0.492240">
        <ele>2432.7</ele>
        <time>2019-10-13T12:09:20Z</time>
      </trkpt>
      <trkpt lat="42.711867" lon="0.492190">
        <ele>2435.2</ele>
        <time>2019-10-13T12:09:37Z</time>
      </trkpt>
      <trkpt lat="42.711762" lon="0.492205">
        <ele>2441.5</ele>
        <time>2019-10-13T12:09:57Z</time>
      </trkpt>
      <trkpt lat="42.711685" lon="0.492185">
        <ele>2447.4</ele>
        <time>2019-10-13T12:10:15Z</time>
      </trkpt>
      <trkpt lat="42.711590" lon="0.492198">
        <ele>2447.7</ele>
        <time>2019-10-13T12:10:31Z</time>
      </trkpt>
      <trkpt lat="42.711561" lon="0.492151">
        <ele>2450.1</ele>
        <time>2019-10-13T12:10:46Z</time>
      </trkpt>
      <trkpt lat="42.711484" lon="0.492114">
        <ele>2452.4</ele>
        <time>2019-10-13T12:11:19Z</time>
      </trkpt>
      <trkpt lat="42.711414" lon="0.492051">
        <ele>2456.2</ele>
        <time>2019-10-13T12:11:38Z</time>
      </trkpt>
      <trkpt lat="42.711314" lon="0.492041">
        <ele>2458.2</ele>
        <time>2019-10-13T12:11:52Z</time>
      </trkpt>
      <trkpt lat="42.711235" lon="0.492097">
        <ele>2461.5</ele>
        <time>2019-10-13T12:12:04Z</time>
      </trkpt>
      <trkpt lat="42.711153" lon="0.492163">
        <ele>2463.7</ele>
        <time>2019-10-13T12:12:22Z</time>
      </trkpt>
      <trkpt lat="42.711098" lon="0.492170">
        <ele>2464.8</ele>
        <time>2019-10-13T12:13:38Z</time>
      </trkpt>
      <trkpt lat="42.711004" lon="0.492207">
        <ele>2467.5</ele>
        <time>2019-10-13T12:13:51Z</time>
      </trkpt>
      <trkpt lat="42.710907" lon="0.492230">
        <ele>2469.9</ele>
        <time>2019-10-13T12:14:03Z</time>
      </trkpt>
      <trkpt lat="42.710812" lon="0.492228">
        <ele>2473.7</ele>
        <time>2019-10-13T12:14:16Z</time>
      </trkpt>
      <trkpt lat="42.710715" lon="0.492256">
        <ele>2477.6</ele>
        <time>2019-10-13T12:14:29Z</time>
      </trkpt>
      <trkpt lat="42.710621" lon="0.492273">
        <ele>2479.2</ele>
        <time>2019-10-13T12:14:41Z</time>
      </trkpt>
      <trkpt lat="42.710557" lon="0.492268">
        <ele>2481.6</ele>
        <time>2019-10-13T12:18:10Z</time>
      </trkpt>
      <trkpt lat="42.710478" lon="0.492259">
        <ele>2485.1</ele>
        <time>2019-10-13T12:18:31Z</time>
      </trkpt>
      <trkpt lat="42.710391" lon="0.492240">
        <ele>2491.8</ele>
        <time>2019-10-13T12:18:53Z</time>
      </trkpt>
      <trkpt lat="42.710302" lon="0.492235">
        <ele>2497.6</ele>
        <time>2019-10-13T12:19:19Z</time>
      </trkpt>
      <trkpt lat="42.710264" lon="0.492240">
        <ele>2501.4</ele>
        <time>2019-10-13T12:20:50Z</time>
      </trkpt>
      <trkpt lat="42.710219" lon="0.492277">
        <ele>2506.0</ele>
        <time>2019-10-13T12:21:08Z</time>
      </trkpt>
      <trkpt lat="42.710187" lon="0.492344">
        <ele>2506.3</ele>
        <time>2019-10-13T12:21:43Z</time>
      </trkpt>
      <trkpt lat="42.710120" lon="0.492402">
        <ele>2509.6</ele>
        <time>2019-10-13T12:22:04Z</time>
      </trkpt>
      <trkpt lat="42.710045" lon="0.492411">
        <ele>2513.2</ele>
        <time>2019-10-13T12:22:26Z</time>
      </trkpt>
      <trkpt lat="42.709987" lon="0.492452">
        <ele>2515.7</ele>
        <time>2019-10-13T12:22:42Z</time>
      </trkpt>
      <trkpt lat="42.709917" lon="0.492477">
        <ele>2521.8</ele>
        <time>2019-10-13T12:23:02Z</time>
      </trkpt>
      <trkpt lat="42.709865" lon="0.492433">
        <ele>2520.7</ele>
        <time>2019-10-13T12:23:24Z</time>
      </trkpt>
      <trkpt lat="42.709781" lon="0.492505">
        <ele>2524.4</ele>
        <time>2019-10-13T12:23:43Z</time>
      </trkpt>
      <trkpt lat="42.709699" lon="0.492549">
        <ele>2528.6</ele>
        <time>2019-10-13T12:24:04Z</time>
      </trkpt>
      <trkpt lat="42.709646" lon="0.492518">
        <ele>2530.3</ele>
        <time>2019-10-13T12:27:37Z</time>
      </trkpt>
      <trkpt lat="42.709589" lon="0.492440">
        <ele>2536.1</ele>
        <time>2019-10-13T12:27:57Z</time>
      </trkpt>
      <trkpt lat="42.709509" lon="0.492427">
        <ele>2542.0</ele>
        <time>2019-10-13T12:28:18Z</time>
      </trkpt>
      <trkpt lat="42.709434" lon="0.492381">
        <ele>2547.6</ele>
        <time>2019-10-13T12:28:42Z</time>
      </trkpt>
      <trkpt lat="42.709384" lon="0.492362">
        <ele>2553.9</ele>
        <time>2019-10-13T12:29:10Z</time>
      </trkpt>
      <trkpt lat="42.709307" lon="0.492351">
        <ele>2559.5</ele>
        <time>2019-10-13T12:29:35Z</time>
      </trkpt>
      <trkpt lat="42.709228" lon="0.492282">
        <ele>2564.4</ele>
        <time>2019-10-13T12:30:11Z</time>
      </trkpt>
      <trkpt lat="42.709163" lon="0.492238">
        <ele>2564.5</ele>
        <time>2019-10-13T12:30:32Z</time>
      </trkpt>
      <trkpt lat="42.709093" lon="0.492316">
        <ele>2565.9</ele>
        <time>2019-10-13T12:30:47Z</time>
      </trkpt>
      <trkpt lat="42.709000" lon="0.492311">
        <ele>2567.1</ele>
        <time>2019-10-13T12:31:02Z</time>
      </trkpt>
      <trkpt lat="42.708924" lon="0.492352">
        <ele>2569.1</ele>
        <time>2019-10-13T12:31:16Z</time>
      </trkpt>
      <trkpt lat="42.708870" lon="0.492298">
        <ele>2574.6</ele>
        <time>2019-10-13T12:31:34Z</time>
      </trkpt>
      <trkpt lat="42.708796" lon="0.492302">
        <ele>2577.0</ele>
        <time>2019-10-13T12:31:53Z</time>
      </trkpt>
      <trkpt lat="42.708763" lon="0.492217">
        <ele>2578.5</ele>
        <time>2019-10-13T12:33:34Z</time>
      </trkpt>
      <trkpt lat="42.708708" lon="0.492165">
        <ele>2581.8</ele>
        <time>2019-10-13T12:33:53Z</time>
      </trkpt>
      <trkpt lat="42.708666" lon="0.492097">
        <ele>2587.1</ele>
        <time>2019-10-13T12:34:18Z</time>
      </trkpt>
      <trkpt lat="42.708626" lon="0.492025">
        <ele>2596.0</ele>
        <time>2019-10-13T12:34:43Z</time>
      </trkpt>
      <trkpt lat="42.708604" lon="0.491911">
        <ele>2596.2</ele>
        <time>2019-10-13T12:35:01Z</time>
      </trkpt>
      <trkpt lat="42.708598" lon="0.491789">
        <ele>2597.8</ele>
        <time>2019-10-13T12:35:15Z</time>
      </trkpt>
      <trkpt lat="42.708528" lon="0.491733">
        <ele>2602.5</ele>
        <time>2019-10-13T12:35:32Z</time>
      </trkpt>
      <trkpt lat="42.708437" lon="0.491751">
        <ele>2602.9</ele>
        <time>2019-10-13T12:35:48Z</time>
      </trkpt>
      <trkpt lat="42.708391" lon="0.491673">
        <ele>2605.9</ele>
        <time>2019-10-13T12:36:06Z</time>
      </trkpt>
      <trkpt lat="42.708336" lon="0.491576">
        <ele>2611.1</ele>
        <time>2019-10-13T12:36:25Z</time>
      </trkpt>
      <trkpt lat="42.708294" lon="0.491475">
        <ele>2616.6</ele>
        <time>2019-10-13T12:36:43Z</time>
      </trkpt>
      <trkpt lat="42.708257" lon="0.491379">
        <ele>2619.3</ele>
        <time>2019-10-13T12:37:01Z</time>
      </trkpt>
      <trkpt lat="42.708228" lon="0.491263">
        <ele>2622.1</ele>
        <time>2019-10-13T12:38:41Z</time>
      </trkpt>
      <trkpt lat="42.708217" lon="0.491183">
        <ele>2626.9</ele>
        <time>2019-10-13T12:40:55Z</time>
      </trkpt>
      <trkpt lat="42.708186" lon="0.491088">
        <ele>2629.6</ele>
        <time>2019-10-13T12:41:13Z</time>
      </trkpt>
      <trkpt lat="42.708129" lon="0.491039">
        <ele>2632.2</ele>
        <time>2019-10-13T12:42:38Z</time>
      </trkpt>
      <trkpt lat="42.708131" lon="0.490990">
        <ele>2634.6</ele>
        <time>2019-10-13T12:43:29Z</time>
      </trkpt>
      <trkpt lat="42.708097" lon="0.490893">
        <ele>2641.1</ele>
        <time>2019-10-13T12:43:52Z</time>
      </trkpt>
      <trkpt lat="42.708013" lon="0.490867">
        <ele>2648.5</ele>
        <time>2019-10-13T12:44:13Z</time>
      </trkpt>
      <trkpt lat="42.707930" lon="0.490867">
        <ele>2649.8</ele>
        <time>2019-10-13T12:44:38Z</time>
      </trkpt>
      <trkpt lat="42.707880" lon="0.490807">
        <ele>2654.1</ele>
        <time>2019-10-13T12:45:02Z</time>
      </trkpt>
      <trkpt lat="42.707849" lon="0.490710">
        <ele>2659.9</ele>
        <time>2019-10-13T12:45:22Z</time>
      </trkpt>
      <trkpt lat="42.707795" lon="0.490667">
        <ele>2662.5</ele>
        <time>2019-10-13T12:45:52Z</time>
      </trkpt>
      <trkpt lat="42.707739" lon="0.490619">
        <ele>2667.4</ele>
        <time>2019-10-13T12:46:13Z</time>
      </trkpt>
      <trkpt lat="42.707690" lon="0.490576">
        <ele>2671.4</ele>
        <time>2019-10-13T12:46:37Z</time>
      </trkpt>
      <trkpt lat="42.707634" lon="0.490501">
        <ele>2672.8</ele>
        <time>2019-10-13T12:46:57Z</time>
      </trkpt>
      <trkpt lat="42.707572" lon="0.490465">
        <ele>2675.3</ele>
        <time>2019-10-13T12:47:16Z</time>
      </trkpt>
      <trkpt lat="42.707530" lon="0.490388">
        <ele>2679.8</ele>
        <time>2019-10-13T12:47:39Z</time>
      </trkpt>
      <trkpt lat="42.707509" lon="0.490283">
        <ele>2685.4</ele>
        <time>2019-10-13T12:48:01Z</time>
      </trkpt>
      <trkpt lat="42.707487" lon="0.490204">
        <ele>2689.8</ele>
        <time>2019-10-13T12:48:18Z</time>
      </trkpt>
      <trkpt lat="42.707457" lon="0.490105">
        <ele>2694.7</ele>
        <time>2019-10-13T12:48:38Z</time>
      </trkpt>
      <trkpt lat="42.707375" lon="0.490138">
        <ele>2698.5</ele>
        <time>2019-10-13T12:49:00Z</time>
      </trkpt>
      <trkpt lat="42.707322" lon="0.490085">
        <ele>2701.4</ele>
        <time>2019-10-13T12:49:20Z</time>
      </trkpt>
      <trkpt lat="42.707283" lon="0.489999">
        <ele>2705.1</ele>
        <time>2019-10-13T12:49:40Z</time>
      </trkpt>
      <trkpt lat="42.707231" lon="0.489957">
        <ele>2712.1</ele>
        <time>2019-10-13T12:49:59Z</time>
      </trkpt>
      <trkpt lat="42.707192" lon="0.489876">
        <ele>2713.9</ele>
        <time>2019-10-13T12:50:34Z</time>
      </trkpt>
      <trkpt lat="42.707135" lon="0.489866">
        <ele>2716.6</ele>
        <time>2019-10-13T12:50:50Z</time>
      </trkpt>
      <trkpt lat="42.707054" lon="0.489855">
        <ele>2720.7</ele>
        <time>2019-10-13T12:51:13Z</time>
      </trkpt>
      <trkpt lat="42.706975" lon="0.489850">
        <ele>2725.8</ele>
        <time>2019-10-13T12:51:33Z</time>
      </trkpt>
      <trkpt lat="42.706940" lon="0.489757">
        <ele>2730.6</ele>
        <time>2019-10-13T12:51:50Z</time>
      </trkpt>
      <trkpt lat="42.706918" lon="0.489693">
        <ele>2736.2</ele>
        <time>2019-10-13T12:52:05Z</time>
      </trkpt>
      <trkpt lat="42.706871" lon="0.489571">
        <ele>2741.2</ele>
        <time>2019-10-13T12:52:22Z</time>
      </trkpt>
      <trkpt lat="42.706853" lon="0.489440">
        <ele>2744.4</ele>
        <time>2019-10-13T12:52:40Z</time>
      </trkpt>
      <trkpt lat="42.706824" lon="0.489324">
        <ele>2747.0</ele>
        <time>2019-10-13T12:52:55Z</time>
      </trkpt>
      <trkpt lat="42.706798" lon="0.489200">
        <ele>2749.4</ele>
        <time>2019-10-13T12:53:08Z</time>
      </trkpt>
      <trkpt lat="42.706745" lon="0.489110">
        <ele>2753.9</ele>
        <time>2019-10-13T12:53:22Z</time>
      </trkpt>
      <trkpt lat="42.706690" lon="0.489025">
        <ele>2760.4</ele>
        <time>2019-10-13T12:53:35Z</time>
      </trkpt>
      <trkpt lat="42.706663" lon="0.488898">
        <ele>2765.6</ele>
        <time>2019-10-13T12:53:47Z</time>
      </trkpt>
      <trkpt lat="42.706651" lon="0.488769">
        <ele>2778.0</ele>
        <time>2019-10-13T12:53:58Z</time>
      </trkpt>
      <trkpt lat="42.706705" lon="0.488664">
        <ele>2783.1</ele>
        <time>2019-10-13T12:54:15Z</time>
      </trkpt>
      <trkpt lat="42.706768" lon="0.488590">
        <ele>2778.5</ele>
        <time>2019-10-13T12:54:27Z</time>
      </trkpt>
      <trkpt lat="42.706752" lon="0.488537">
        <ele>2770.1</ele>
        <time>2019-10-13T12:55:07Z</time>
      </trkpt>
      <trkpt lat="42.706767" lon="0.488409">
        <ele>2770.7</ele>
        <time>2019-10-13T12:55:27Z</time>
      </trkpt>
      <trkpt lat="42.706820" lon="0.488292">
        <ele>2772.9</ele>
        <time>2019-10-13T12:55:40Z</time>
      </trkpt>
      <trkpt lat="42.706867" lon="0.488196">
        <ele>2772.8</ele>
        <time>2019-10-13T12:55:58Z</time>
      </trkpt>
      <trkpt lat="42.706895" lon="0.488088">
        <ele>2775.8</ele>
        <time>2019-10-13T12:56:10Z</time>
      </trkpt>
      <trkpt lat="42.706967" lon="0.488091">
        <ele>2783.6</ele>
        <time>2019-10-13T12:56:24Z</time>
      </trkpt>
      <trkpt lat="42.707028" lon="0.488054">
        <ele>2786.4</ele>
        <time>2019-10-13T12:56:38Z</time>
      </trkpt>
      <trkpt lat="42.707040" lon="0.487968">
        <ele>2788.6</ele>
        <time>2019-10-13T12:56:57Z</time>
      </trkpt>
      <trkpt lat="42.707067" lon="0.487854">
        <ele>2786.4</ele>
        <time>2019-10-13T12:57:11Z</time>
      </trkpt>
      <trkpt lat="42.707075" lon="0.487768">
        <ele>2786.8</ele>
        <time>2019-10-13T12:58:41Z</time>
      </trkpt>
      <trkpt lat="42.707103" lon="0.487648">
        <ele>2788.3</ele>
        <time>2019-10-13T12:58:58Z</time>
      </trkpt>
      <trkpt lat="42.707180" lon="0.487611">
        <ele>2790.1</ele>
        <time>2019-10-13T12:59:27Z</time>
      </trkpt>
      <trkpt lat="42.707191" lon="0.487505">
        <ele>2796.1</ele>
        <time>2019-10-13T12:59:51Z</time>
      </trkpt>
      <trkpt lat="42.707210" lon="0.487406">
        <ele>2797.1</ele>
        <time>2019-10-13T13:00:08Z</time>
      </trkpt>
      <trkpt lat="42.707300" lon="0.487416">
        <ele>2802.7</ele>
        <time>2019-10-13T13:00:25Z</time>
      </trkpt>
      <trkpt lat="42.707338" lon="0.487341">
        <ele>2803.1</ele>
        <time>2019-10-13T13:00:51Z</time>
      </trkpt>
      <trkpt lat="42.707307" lon="0.487216">
        <ele>2811.3</ele>
        <time>2019-10-13T13:01:10Z</time>
      </trkpt>
      <trkpt lat="42.707295" lon="0.487138">
        <ele>2820.2</ele>
        <time>2019-10-13T13:01:31Z</time>
      </trkpt>
      <trkpt lat="42.707340" lon="0.487088">
        <ele>2823.3</ele>
        <time>2019-10-13T13:01:48Z</time>
      </trkpt>
      <trkpt lat="42.707367" lon="0.486984">
        <ele>2822.3</ele>
        <time>2019-10-13T13:02:06Z</time>
      </trkpt>
      <trkpt lat="42.707344" lon="0.486868">
        <ele>2820.1</ele>
        <time>2019-10-13T13:02:25Z</time>
      </trkpt>
      <trkpt lat="42.707392" lon="0.486791">
        <ele>2829.5</ele>
        <time>2019-10-13T13:02:49Z</time>
      </trkpt>
      <trkpt lat="42.707403" lon="0.486671">
        <ele>2831.5</ele>
        <time>2019-10-13T13:03:01Z</time>
      </trkpt>
      <trkpt lat="42.707386" lon="0.486547">
        <ele>2834.4</ele>
        <time>2019-10-13T13:03:17Z</time>
      </trkpt>
      <trkpt lat="42.707392" lon="0.486416">
        <ele>2834.5</ele>
        <time>2019-10-13T13:03:31Z</time>
      </trkpt>
      <trkpt lat="42.707447" lon="0.486310">
        <ele>2834.6</ele>
        <time>2019-10-13T13:04:13Z</time>
      </trkpt>
      <trkpt lat="42.707503" lon="0.486219">
        <ele>2833.2</ele>
        <time>2019-10-13T13:04:29Z</time>
      </trkpt>
      <trkpt lat="42.707564" lon="0.486173">
        <ele>2850.7</ele>
        <time>2019-10-13T13:04:51Z</time>
      </trkpt>
      <trkpt lat="42.707589" lon="0.486091">
        <ele>2838.1</ele>
        <time>2019-10-13T13:05:20Z</time>
      </trkpt>
      <trkpt lat="42.707650" lon="0.486056">
        <ele>2838.7</ele>
        <time>2019-10-13T13:05:40Z</time>
      </trkpt>
      <trkpt lat="42.707714" lon="0.486088">
        <ele>2842.9</ele>
        <time>2019-10-13T13:05:59Z</time>
      </trkpt>
      <trkpt lat="42.707746" lon="0.486033">
        <ele>2858.1</ele>
        <time>2019-10-13T13:06:57Z</time>
      </trkpt>
      <trkpt lat="42.707738" lon="0.485903">
        <ele>2861.7</ele>
        <time>2019-10-13T13:07:15Z</time>
      </trkpt>
      <trkpt lat="42.707739" lon="0.485789">
        <ele>2865.4</ele>
        <time>2019-10-13T13:07:34Z</time>
      </trkpt>
      <trkpt lat="42.707757" lon="0.485684">
        <ele>2870.0</ele>
        <time>2019-10-13T13:07:56Z</time>
      </trkpt>
      <trkpt lat="42.707799" lon="0.485561">
        <ele>2867.4</ele>
        <time>2019-10-13T13:08:38Z</time>
      </trkpt>
      <trkpt lat="42.707849" lon="0.485491">
        <ele>2870.7</ele>
        <time>2019-10-13T13:09:01Z</time>
      </trkpt>
      <trkpt lat="42.707884" lon="0.485421">
        <ele>2869.4</ele>
        <time>2019-10-13T13:09:21Z</time>
      </trkpt>
      <trkpt lat="42.707948" lon="0.485500">
        <ele>2873.5</ele>
        <time>2019-10-13T13:09:39Z</time>
      </trkpt>
      <trkpt lat="42.707999" lon="0.485476">
        <ele>2880.1</ele>
        <time>2019-10-13T13:09:59Z</time>
      </trkpt>
      <trkpt lat="42.708025" lon="0.485364">
        <ele>2883.9</ele>
        <time>2019-10-13T13:10:28Z</time>
      </trkpt>
      <trkpt lat="42.708087" lon="0.485371">
        <ele>2884.5</ele>
        <time>2019-10-13T13:10:59Z</time>
      </trkpt>
      <trkpt lat="42.708154" lon="0.485450">
        <ele>2890.1</ele>
        <time>2019-10-13T13:11:22Z</time>
      </trkpt>
      <trkpt lat="42.708224" lon="0.485462">
        <ele>2893.5</ele>
        <time>2019-10-13T13:11:41Z</time>
      </trkpt>
      <trkpt lat="42.708238" lon="0.485342">
        <ele>2896.8</ele>
        <time>2019-10-13T13:13:13Z</time>
      </trkpt>
      <trkpt lat="42.708259" lon="0.485371">
        <ele>2900.7</ele>
        <time>2019-10-13T13:14:09Z</time>
      </trkpt>
      <trkpt lat="42.708280" lon="0.485508">
        <ele>2899.4</ele>
        <time>2019-10-13T13:14:28Z</time>
      </trkpt>
      <trkpt lat="42.708337" lon="0.485522">
        <ele>2910.1</ele>
        <time>2019-10-13T13:14:58Z</time>
      </trkpt>
      <trkpt lat="42.708384" lon="0.485578">
        <ele>2916.8</ele>
        <time>2019-10-13T13:15:12Z</time>
      </trkpt>
      <trkpt lat="42.708437" lon="0.485590">
        <ele>2910.3</ele>
        <time>2019-10-13T13:15:53Z</time>
      </trkpt>
      <trkpt lat="42.708428" lon="0.485480">
        <ele>2911.8</ele>
        <time>2019-10-13T13:16:29Z</time>
      </trkpt>
      <trkpt lat="42.708449" lon="0.485409">
        <ele>2922.6</ele>
        <time>2019-10-13T13:17:05Z</time>
      </trkpt>
      <trkpt lat="42.708490" lon="0.485295">
        <ele>2922.4</ele>
        <time>2019-10-13T13:17:40Z</time>
      </trkpt>
      <trkpt lat="42.708490" lon="0.485228">
        <ele>2929.6</ele>
        <time>2019-10-13T13:18:49Z</time>
      </trkpt>
      <trkpt lat="42.708554" lon="0.485175">
        <ele>2932.6</ele>
        <time>2019-10-13T13:19:19Z</time>
      </trkpt>
      <trkpt lat="42.708605" lon="0.485185">
        <ele>2935.2</ele>
        <time>2019-10-13T13:20:03Z</time>
      </trkpt>
      <trkpt lat="42.708658" lon="0.485237">
        <ele>2939.3</ele>
        <time>2019-10-13T13:20:57Z</time>
      </trkpt>
      <trkpt lat="42.708729" lon="0.485241">
        <ele>2944.5</ele>
        <time>2019-10-13T13:21:21Z</time>
      </trkpt>
      <trkpt lat="42.708783" lon="0.485297">
        <ele>2947.1</ele>
        <time>2019-10-13T13:21:44Z</time>
      </trkpt>
      <trkpt lat="42.708816" lon="0.485408">
        <ele>2942.7</ele>
        <time>2019-10-13T13:22:15Z</time>
      </trkpt>
      <trkpt lat="42.708846" lon="0.485504">
        <ele>2944.1</ele>
        <time>2019-10-13T13:22:39Z</time>
      </trkpt>
      <trkpt lat="42.708920" lon="0.485566">
        <ele>2949.1</ele>
        <time>2019-10-13T13:23:17Z</time>
      </trkpt>
      <trkpt lat="42.708978" lon="0.485532">
        <ele>2953.6</ele>
        <time>2019-10-13T13:24:27Z</time>
      </trkpt>
      <trkpt lat="42.709034" lon="0.485528">
        <ele>2957.8</ele>
        <time>2019-10-13T13:24:50Z</time>
      </trkpt>
      <trkpt lat="42.709088" lon="0.485536">
        <ele>2961.4</ele>
        <time>2019-10-13T13:25:16Z</time>
      </trkpt>
      <trkpt lat="42.709142" lon="0.485579">
        <ele>2964.8</ele>
        <time>2019-10-13T13:25:49Z</time>
      </trkpt>
      <trkpt lat="42.709213" lon="0.485584">
        <ele>2968.4</ele>
        <time>2019-10-13T13:26:13Z</time>
      </trkpt>
      <trkpt lat="42.709275" lon="0.485569">
        <ele>2971.1</ele>
        <time>2019-10-13T13:26:34Z</time>
      </trkpt>
      <trkpt lat="42.709335" lon="0.485517">
        <ele>2974.4</ele>
        <time>2019-10-13T13:27:37Z</time>
      </trkpt>
      <trkpt lat="42.709380" lon="0.485426">
        <ele>2982.8</ele>
        <time>2019-10-13T13:28:10Z</time>
      </trkpt>
      <trkpt lat="42.709450" lon="0.485430">
        <ele>2992.4</ele>
        <time>2019-10-13T13:28:36Z</time>
      </trkpt>
      <trkpt lat="42.709506" lon="0.485370">
        <ele>2992.5</ele>
        <time>2019-10-13T13:29:00Z</time>
      </trkpt>
      <trkpt lat="42.709569" lon="0.485388">
        <ele>2993.8</ele>
        <time>2019-10-13T13:29:28Z</time>
      </trkpt>
      <trkpt lat="42.709638" lon="0.485405">
        <ele>3001.4</ele>
        <time>2019-10-13T13:29:56Z</time>
      </trkpt>
      <trkpt lat="42.709714" lon="0.485410">
        <ele>3006.6</ele>
        <time>2019-10-13T13:30:24Z</time>
      </trkpt>
      <trkpt lat="42.709754" lon="0.485329">
        <ele>3013.7</ele>
        <time>2019-10-13T13:30:49Z</time>
      </trkpt>
      <trkpt lat="42.709823" lon="0.485301">
        <ele>3015.5</ele>
        <time>2019-10-13T13:31:13Z</time>
      </trkpt>
      <trkpt lat="42.709882" lon="0.485290">
        <ele>3021.5</ele>
        <time>2019-10-13T13:33:54Z</time>
      </trkpt>
      <trkpt lat="42.709883" lon="0.485190">
        <ele>3022.8</ele>
        <time>2019-10-13T13:34:35Z</time>
      </trkpt>
      <trkpt lat="42.709922" lon="0.485061">
        <ele>3027.9</ele>
        <time>2019-10-13T13:35:35Z</time>
      </trkpt>
      <trkpt lat="42.709935" lon="0.484945">
        <ele>3035.3</ele>
        <time>2019-10-13T13:36:02Z</time>
      </trkpt>
      <trkpt lat="42.709916" lon="0.484821">
        <ele>3041.3</ele>
        <time>2019-10-13T13:36:37Z</time>
      </trkpt>
      <trkpt lat="42.709956" lon="0.484703">
        <ele>3047.3</ele>
        <time>2019-10-13T13:37:18Z</time>
      </trkpt>
      <trkpt lat="42.709967" lon="0.484692">
        <ele>3049.8</ele>
        <time>2019-10-13T13:37:41Z</time>
      </trkpt>
      <trkpt lat="42.710003" lon="0.484756">
        <ele>3055.0</ele>
        <time>2019-10-13T13:38:02Z</time>
      </trkpt>
      <trkpt lat="42.710026" lon="0.484869">
        <ele>3054.6</ele>
        <time>2019-10-13T13:38:31Z</time>
      </trkpt>
      <trkpt lat="42.710046" lon="0.484817">
        <ele>3054.7</ele>
        <time>2019-10-13T13:39:21Z</time>
      </trkpt>
      <trkpt lat="42.710094" lon="0.484774">
        <ele>3055.8</ele>
        <time>2019-10-13T13:40:59Z</time>
      </trkpt>
      <trkpt lat="42.710104" lon="0.484741">
        <ele>3053.6</ele>
        <time>2019-10-13T13:49:31Z</time>
      </trkpt>
      <trkpt lat="42.710133" lon="0.484758">
        <ele>3052.1</ele>
        <time>2019-10-13T13:50:31Z</time>
      </trkpt>
    </trkseg>
  </trk>
</gpx>

